M I D A S
Marine Information and Data Acquisition System
Tripno 1656 of the Zeeleeuw from 2009-03-10 07:54:10 to 2009-03-12 16:30:10
Back to CruiseResearch ActivitiesStationsMapUnderway DataData graphs

EquipmentUnitsComment
TimeDGPSUTC
LatitudeDGPSDM.mWGS84
LongitudeDGPSDM.mWGS84
TemperatureSBE03/SBE38deg celciusITS90
ConductivitySBE21S/mITS90
SalinitySBE21 Practical Salinity Units
ChlorophylAChelsea fluorimeterg/lCalibrated in Aceton
Missing or incorrect values are displayed as -999
Sea surface data collected by the RV Zeeleeuw from 2009-03-10 08:04:47 to 2009-03-12 17:00:00
                                                                                    Next 1000 lines
Time Latitude Longitude Temperature Conductivity Salinity ChlorophylA
2009-03-10 08:04:57 51°13.663 2°55.955 -999 0.063201 0.34926 -1.279161
2009-03-10 08:05:01 51°13.664 2°55.953 -999 0.063304 0.349846 -1.244337
2009-03-10 08:05:06 51°13.664 2°55.951 -999 0.063304 0.349853 -1.279161
2009-03-10 08:05:12 51°13.665 2°55.949 -999 0.063304 0.349853 -1.279161
2009-03-10 08:05:16 51°13.666 2°55.947 -999 0.063201 0.349266 -1.279161
2009-03-10 08:05:22 51°13.667 2°55.946 -999 0.063304 0.349859 -1.279161
2009-03-10 08:05:27 51°13.667 2°55.946 -999 0.063304 0.349853 -1.279161
2009-03-10 08:05:32 51°13.667 2°55.946 -999 0.063304 0.349865 -1.279161
2009-03-10 08:05:37 51°13.667 2°55.947 -999 0.063304 0.349859 -1.279161
2009-03-10 08:05:42 51°13.667 2°55.948 -999 0.063304 0.349859 -1.279161
2009-03-10 08:05:47 51°13.667 2°55.948 -999 0.063304 0.349865 -1.279161
2009-03-10 08:05:52 51°13.667 2°55.949 -999 0.063201 0.349285 -1.279161
2009-03-10 08:05:57 51°13.667 2°55.949 -999 0.063304 0.349865 -1.279161
2009-03-10 08:06:02 51°13.667 2°55.95 -999 0.063304 0.349871 -1.279161
2009-03-10 08:06:07 51°13.667 2°55.95 -999 0.063304 0.349871 -1.279161
2009-03-10 08:06:12 51°13.667 2°55.951 -999 0.063304 0.349871 -1.279161
2009-03-10 08:06:17 51°13.667 2°55.951 -999 0.063304 0.349878 -1.279161
2009-03-10 08:06:22 51°13.667 2°55.951 -999 0.063201 0.349298 -1.279161
2009-03-10 08:06:27 51°13.667 2°55.952 -999 0.063201 0.349298 -1.279161
2009-03-10 08:06:32 51°13.666 2°55.952 -999 0.063201 0.349304 -1.279161
2009-03-10 08:06:37 51°13.666 2°55.953 -999 0.063201 0.349304 -1.279161
2009-03-10 08:06:42 51°13.666 2°55.953 -999 0.063201 0.349304 -1.279161
2009-03-10 08:06:47 51°13.665 2°55.954 -999 0.063201 0.34931 -1.279161
2009-03-10 08:06:52 51°13.665 2°55.954 -999 0.063201 0.34931 -1.279161
2009-03-10 08:06:57 51°13.665 2°55.955 -999 0.063201 0.349316 -1.244337
2009-03-10 08:07:02 51°13.665 2°55.955 -999 0.063201 0.349316 -1.279161
2009-03-10 08:07:07 51°13.664 2°55.956 -999 0.063201 0.349323 -1.279161
2009-03-10 08:07:12 51°13.664 2°55.956 -999 0.063201 0.349323 -1.279161
2009-03-10 08:07:17 51°13.664 2°55.956 -999 0.063201 0.349323 -1.279161
2009-03-10 08:07:22 51°13.663 2°55.956 -999 0.063201 0.349323 -1.279161
2009-03-10 08:07:27 51°13.663 2°55.957 -999 0.063201 0.349329 -1.279161
2009-03-10 08:07:32 51°13.662 2°55.957 -999 0.063201 0.349329 -1.279161
2009-03-10 08:07:37 51°13.662 2°55.957 -999 0.063201 0.349335 -1.279161
2009-03-10 08:07:42 51°13.662 2°55.957 -999 0.063201 0.349335 -1.279161
2009-03-10 08:07:47 51°13.663 2°55.957 -999 0.063201 0.349335 -1.279161
2009-03-10 08:07:52 51°13.663 2°55.957 -999 0.063201 0.349341 -1.279161
2009-03-10 08:07:57 51°13.663 2°55.958 -999 0.063201 0.349341 -1.279161
2009-03-10 08:08:02 51°13.663 2°55.957 -999 0.063201 0.349348 -1.244337
2009-03-10 08:08:07 51°13.663 2°55.958 -999 0.063201 0.349348 -1.279161
2009-03-10 08:08:12 51°13.662 2°55.958 -999 0.063201 0.349348 -1.279161
2009-03-10 08:08:17 51°13.662 2°55.958 -999 0.063201 0.349348 -1.279161
2009-03-10 08:08:22 51°13.662 2°55.959 -999 0.063201 0.349354 -1.279161
2009-03-10 08:08:27 51°13.662 2°55.959 -999 0.063201 0.349354 -1.279161
2009-03-10 08:08:32 51°13.662 2°55.959 -999 0.063201 0.34936 -1.279161
2009-03-10 08:08:37 51°13.662 2°55.959 -999 0.063201 0.349366 -1.279161
2009-03-10 08:08:42 51°13.662 2°55.96 -999 0.063201 0.349366 -1.279161
2009-03-10 08:08:47 51°13.662 2°55.96 -999 0.063201 0.349366 -1.279161
2009-03-10 08:08:52 51°13.662 2°55.96 -999 0.063201 0.349373 -1.279161
2009-03-10 08:08:57 51°13.662 2°55.96 -999 0.063201 0.349373 -1.279161
2009-03-10 08:09:02 51°13.662 2°55.96 -999 0.063201 0.349373 -1.279161
2009-03-10 08:09:07 51°13.662 2°55.96 -999 0.063201 0.349379 -1.279161
2009-03-10 08:09:12 51°13.662 2°55.96 -999 0.063201 0.349379 -1.279161
2009-03-10 08:09:17 51°13.662 2°55.96 -999 0.063201 0.349379 -1.279161
2009-03-10 08:09:22 51°13.662 2°55.96 -999 0.063201 0.349385 -1.244337
2009-03-10 08:09:27 51°13.662 2°55.96 -999 0.063201 0.349385 -1.279161
2009-03-10 08:09:32 51°13.662 2°55.96 -999 0.063201 0.349392 -1.279161
2009-03-10 08:09:37 51°13.662 2°55.96 -999 0.063201 0.349392 -1.279161
2009-03-10 08:09:42 51°13.662 2°55.96 -999 0.063201 0.349392 -1.279161
2009-03-10 08:09:47 51°13.661 2°55.96 -999 0.063201 0.349392 -1.279161
2009-03-10 08:09:52 51°13.661 2°55.96 -999 0.063201 0.349398 -1.279161
2009-03-10 08:09:57 51°13.661 2°55.96 -999 0.063201 0.349404 -1.279161
2009-03-10 08:10:02 51°13.661 2°55.959 -999 0.063201 0.349404 -1.279161
2009-03-10 08:10:07 51°13.662 2°55.959 -999 0.063201 0.349404 -1.244337
2009-03-10 08:10:12 51°13.662 2°55.959 -999 0.063201 0.349404 -1.244337
2009-03-10 08:10:17 51°13.662 2°55.957 -999 0.063201 0.349404 -1.279161
2009-03-10 08:10:22 51°13.663 2°55.956 -999 0.063201 0.34941 -1.279161
2009-03-10 08:10:27 51°13.664 2°55.954 -999 0.063201 0.34941 -1.279161
2009-03-10 08:10:32 51°13.665 2°55.951 -999 0.063201 0.349417 -1.244337
2009-03-10 08:10:36 51°13.665 2°55.949 -999 0.063201 0.349417 -1.279161
2009-03-10 08:10:41 51°13.666 2°55.946 -999 0.063201 0.349417 -1.279161
2009-03-10 08:10:47 51°13.668 2°55.942 -999 0.063201 0.349423 -1.279161
2009-03-10 08:10:52 51°13.668 2°55.938 -999 0.063201 0.349423 -1.279161
2009-03-10 08:10:57 51°13.67 2°55.934 -999 0.063201 0.349429 -1.279161
2009-03-10 08:11:02 51°13.671 2°55.929 -999 0.063201 0.349429 -1.244337
2009-03-10 08:11:07 51°13.672 2°55.924 -999 0.063201 0.349435 -1.279161
2009-03-10 08:11:12 51°13.673 2°55.919 -999 0.063201 0.349435 -1.279161
2009-03-10 08:11:17 51°13.674 2°55.914 -999 0.063201 0.349435 -1.244337
2009-03-10 08:11:22 51°13.675 2°55.908 -999 0.063201 0.349435 -1.279161
2009-03-10 08:11:27 51°13.677 2°55.903 -999 0.063201 0.349442 -1.279161
2009-03-10 08:11:32 51°13.678 2°55.897 -999 0.063201 0.349442 -1.279161
2009-03-10 08:11:37 51°13.679 2°55.891 -999 0.063201 0.349442 -1.279161
2009-03-10 08:11:42 51°13.68 2°55.885 -999 0.063201 0.349442 -1.279161
2009-03-10 08:11:47 51°13.682 2°55.879 -999 0.063201 0.349454 -1.279161
2009-03-10 08:11:52 51°13.683 2°55.873 -999 0.063201 0.349454 -1.279161
2009-03-10 08:11:57 51°13.684 2°55.866 -999 0.063201 0.349454 -1.279161
2009-03-10 08:12:02 51°13.685 2°55.86 -999 0.063201 0.349461 -1.279161
2009-03-10 08:12:07 51°13.686 2°55.854 -999 0.063201 0.349467 -1.279161
2009-03-10 08:12:12 51°13.687 2°55.847 -999 0.063201 0.349467 -1.279161
2009-03-10 08:12:17 51°13.688 2°55.84 -999 0.063201 0.349467 -1.244337
2009-03-10 08:12:22 51°13.689 2°55.833 -999 0.063201 0.349473 -1.279161
2009-03-10 08:12:27 51°13.689 2°55.827 -999 0.063201 0.349473 -1.279161
2009-03-10 08:12:32 51°13.689 2°55.82 -999 0.063201 0.349473 -1.279161
2009-03-10 08:12:37 51°13.689 2°55.814 -999 0.063201 0.349479 -1.279161
2009-03-10 08:12:42 51°13.689 2°55.808 -999 0.063201 0.349479 -1.279161
2009-03-10 08:12:47 51°13.689 2°55.802 -999 0.063201 0.349479 -1.279161
2009-03-10 08:12:52 51°13.689 2°55.796 -999 0.063201 0.349486 -1.244337
2009-03-10 08:12:57 51°13.689 2°55.79 -999 0.063201 0.349486 -1.279161
2009-03-10 08:13:02 51°13.689 2°55.784 -999 0.063201 0.349492 -1.279161
2009-03-10 08:13:07 51°13.689 2°55.779 -999 0.063201 0.349492 -1.279161
2009-03-10 08:13:12 51°13.688 2°55.774 -999 0.063201 0.349492 -1.279161
2009-03-10 08:13:17 51°13.688 2°55.769 -999 0.063201 0.349492 -1.279161
2009-03-10 08:13:22 51°13.688 2°55.767 -999 0.063201 0.349505 -1.279161
2009-03-10 08:13:27 51°13.688 2°55.765 -999 0.063201 0.349599 -1.244337
2009-03-10 08:13:32 51°13.689 2°55.765 -999 0.063201 0.34968 -1.279161
2009-03-10 08:13:37 51°13.69 2°55.765 -999 0.063201 0.349737 -1.279161
2009-03-10 08:13:42 51°13.691 2°55.766 -999 0.063201 0.349737 -1.279161
2009-03-10 08:13:47 51°13.692 2°55.766 -999 0.063201 0.349724 -1.279161
2009-03-10 08:13:52 51°13.694 2°55.766 -999 0.063201 0.349693 -1.244337
2009-03-10 08:13:57 51°13.695 2°55.766 -999 0.063201 0.349636 -1.279161
2009-03-10 08:14:02 51°13.697 2°55.766 -999 0.063201 0.349567 -1.279161
2009-03-10 08:14:07 51°13.698 2°55.766 -999 0.063201 0.349492 -1.279161
2009-03-10 08:14:12 51°13.7 2°55.766 -999 0.063201 0.349492 -1.279161
2009-03-10 08:14:17 51°13.701 2°55.766 -999 0.063201 0.349429 -1.279161
2009-03-10 08:14:22 51°13.703 2°55.766 -999 0.063201 0.349392 -1.279161
2009-03-10 08:14:27 51°13.705 2°55.765 -999 0.063201 0.349385 -1.279161
2009-03-10 08:14:32 51°13.706 2°55.764 -999 0.063201 0.34941 -1.279161
2009-03-10 08:14:37 51°13.707 2°55.764 -999 0.063201 0.349448 -1.279161
2009-03-10 08:14:42 51°13.708 2°55.763 -999 0.063201 0.349448 -1.279161
2009-03-10 08:14:47 51°13.708 2°55.763 -999 0.063201 0.349498 -1.244337
2009-03-10 08:14:52 51°13.708 2°55.762 -999 0.063201 0.349542 -1.279161
2009-03-10 08:14:57 51°13.707 2°55.761 -999 0.063201 0.34958 -1.279161
2009-03-10 08:15:02 51°13.707 2°55.761 -999 0.063201 0.349605 -1.279161
2009-03-10 08:15:07 51°13.707 2°55.76 -999 0.063201 0.349618 -1.279161
2009-03-10 08:15:12 51°13.707 2°55.759 -999 0.063201 0.349618 -1.279161
2009-03-10 08:15:17 51°13.707 2°55.758 -999 0.063201 0.349611 -1.244337
2009-03-10 08:15:22 51°13.708 2°55.758 -999 0.063201 0.349605 -1.244337
2009-03-10 08:15:27 51°13.709 2°55.756 -999 0.063201 0.349592 -1.279161
2009-03-10 08:15:32 51°13.71 2°55.755 -999 0.063201 0.349574 -1.244337
2009-03-10 08:15:37 51°13.712 2°55.754 -999 0.063201 0.349561 -1.279161
2009-03-10 08:15:42 51°13.713 2°55.752 -999 0.063201 0.349561 -1.279161
2009-03-10 08:15:47 51°13.715 2°55.75 -999 0.063201 0.349555 -1.279161
2009-03-10 08:15:52 51°13.718 2°55.747 -999 0.063201 0.349555 -1.279161
2009-03-10 08:15:57 51°13.721 2°55.743 -999 0.063201 0.349555 -1.279161
2009-03-10 08:16:02 51°13.726 2°55.737 -999 0.063201 0.349561 -1.279161
2009-03-10 08:16:07 51°13.731 2°55.73 -999 0.063201 0.349567 -1.279161
2009-03-10 08:16:12 51°13.737 2°55.723 -999 0.063201 0.349567 -1.279161
2009-03-10 08:16:17 51°13.744 2°55.714 -999 0.063201 0.349574 -1.244337
2009-03-10 08:16:21 51°13.75 2°55.708 -999 0.063201 0.34958 -1.279161
2009-03-10 08:16:26 51°13.758 2°55.698 -999 0.063201 0.349586 -1.244337
2009-03-10 08:16:32 51°13.768 2°55.687 -999 0.063201 0.349592 -1.244337
2009-03-10 08:16:36 51°13.775 2°55.68 -999 0.063201 0.349599 -1.279161
2009-03-10 08:16:41 51°13.784 2°55.671 -999 0.063201 0.349599 -1.279161
2009-03-10 08:16:45 51°13.792 2°55.664 -999 0.063201 0.349599 -1.244337
2009-03-10 08:16:50 51°13.803 2°55.655 -999 0.063201 0.349599 -1.279161
2009-03-10 08:16:55 51°13.813 2°55.646 -999 0.063201 0.349605 -1.279161
2009-03-10 08:17:00 51°13.824 2°55.638 -999 0.063201 0.349605 -1.279161
2009-03-10 08:17:05 51°13.835 2°55.63 -999 0.063201 0.349611 -1.279161
2009-03-10 08:17:09 51°13.844 2°55.623 -999 0.063201 0.349611 -1.279161
2009-03-10 08:17:14 51°13.855 2°55.615 -999 0.063201 0.349611 -1.279161
2009-03-10 08:17:19 51°13.866 2°55.607 -999 0.063201 0.349611 -1.279161
2009-03-10 08:17:24 51°13.877 2°55.598 -999 0.063201 0.349618 -1.244337
2009-03-10 08:17:28 51°13.886 2°55.591 -999 0.063201 0.349618 -1.279161
2009-03-10 08:17:33 51°13.897 2°55.583 -999 0.063201 0.349624 -1.279161
2009-03-10 08:17:39 51°13.91 2°55.572 -999 0.063201 0.349624 -1.279161
2009-03-10 08:17:44 51°13.921 2°55.563 -999 0.063201 0.349624 -1.279161
2009-03-10 08:17:49 51°13.932 2°55.555 -999 0.063201 0.349624 -1.244337
2009-03-10 08:17:54 51°13.944 2°55.547 -999 0.063201 0.349636 -1.279161
2009-03-10 08:17:59 51°13.955 2°55.538 -999 0.063201 0.349636 -1.279161
2009-03-10 08:18:05 51°13.968 2°55.528 -999 0.063201 0.349643 -1.279161
2009-03-10 08:18:10 51°13.98 2°55.52 -999 0.063201 0.349643 -1.279161
2009-03-10 08:18:15 51°13.992 2°55.512 -999 0.063201 0.349643 -1.244337
2009-03-10 08:18:21 51°14.005 2°55.501 -999 0.063201 0.349649 -1.279161
2009-03-10 08:18:26 51°14.017 2°55.493 -999 0.063201 0.349649 -1.279161
2009-03-10 08:18:31 51°14.028 2°55.485 -999 0.063201 0.349655 -1.279161
2009-03-10 08:18:36 51°14.039 2°55.476 -999 0.063201 0.349655 -1.279161
2009-03-10 08:18:40 51°14.049 2°55.469 -999 0.063201 0.349655 -1.279161
2009-03-10 08:18:45 51°14.06 2°55.46 -999 0.063201 0.349662 -1.279161
2009-03-10 08:18:50 51°14.071 2°55.451 -999 0.063201 0.349662 -1.244337
2009-03-10 08:18:55 51°14.083 2°55.443 -999 0.063201 0.349662 -1.279161
2009-03-10 08:19:00 51°14.094 2°55.434 -999 0.063201 0.349668 -1.279161
2009-03-10 08:19:04 51°14.103 2°55.427 -999 0.063201 0.349668 -1.279161
2009-03-10 08:19:09 51°14.115 2°55.418 -999 0.063201 0.349668 -1.279161
2009-03-10 08:19:14 51°14.126 2°55.409 -999 0.063201 0.349668 -1.279161
2009-03-10 08:19:19 51°14.137 2°55.4 -999 0.063201 0.349674 -1.279161
2009-03-10 08:19:24 51°14.148 2°55.39 -999 0.063201 0.349674 -1.279161
2009-03-10 08:19:28 51°14.157 2°55.382 -999 0.063201 0.349674 -1.244337
2009-03-10 08:19:34 51°14.17 2°55.37 -999 0.063201 0.34968 -1.244337
2009-03-10 08:19:38 51°14.178 2°55.362 -999 0.063201 0.34968 -1.244337
2009-03-10 08:19:44 51°14.191 2°55.349 -999 0.063201 0.349687 -1.244337
2009-03-10 08:19:48 51°14.199 2°55.34 -999 0.063201 0.349687 -1.244337
2009-03-10 08:19:52 51°14.207 2°55.33 -999 0.063201 0.349687 -1.279161
2009-03-10 08:19:59 51°14.221 2°55.313 -999 0.063201 0.349693 -1.279161
2009-03-10 08:20:04 51°14.231 2°55.301 -999 0.063201 0.349693 -1.279161
2009-03-10 08:20:08 51°14.238 2°55.29 -999 0.063201 0.349693 -1.279161
2009-03-10 08:20:13 51°14.248 2°55.277 -999 0.063201 0.349699 -1.279161
2009-03-10 08:20:19 51°14.259 2°55.261 -999 0.063201 0.349706 -1.244337
2009-03-10 08:20:24 51°14.268 2°55.247 -999 0.063201 0.349699 -1.279161
2009-03-10 08:20:28 51°14.276 2°55.236 -999 0.063201 0.349706 -1.279161
2009-03-10 08:20:33 51°14.285 2°55.222 -999 0.063201 0.349693 -1.279161
2009-03-10 08:20:38 51°14.294 2°55.207 -999 0.063201 0.349693 -1.279161
2009-03-10 08:20:44 51°14.304 2°55.189 -999 0.063201 0.349636 -1.244337
2009-03-10 08:20:48 51°14.312 2°55.177 -999 0.063201 0.349605 -1.279161
2009-03-10 08:20:53 51°14.32 2°55.162 -999 0.063201 0.349605 -1.279161
2009-03-10 08:20:59 51°14.331 2°55.143 -999 0.063201 0.34963 -1.244337
2009-03-10 08:21:04 51°14.34 2°55.128 -999 0.063201 0.349674 -1.279161
2009-03-10 08:21:08 51°14.348 2°55.116 -999 0.063201 0.349674 -1.279161
2009-03-10 08:21:13 51°14.357 2°55.1 -999 0.063201 0.349724 -1.244337
2009-03-10 08:21:19 51°14.368 2°55.081 -999 0.063201 0.349787 -1.244337
2009-03-10 08:21:24 51°14.377 2°55.064 -999 0.063201 0.349819 -1.244337
2009-03-10 08:21:28 51°14.384 2°55.051 -999 0.063201 0.349831 -1.244337
2009-03-10 08:21:34 51°14.395 2°55.032 -999 0.063201 0.349838 -1.244337
2009-03-10 08:21:39 51°14.405 2°55.015 -999 0.063201 0.349838 -1.244337
2009-03-10 08:21:44 51°14.416 2°54.999 -999 0.063201 0.349825 -1.279161
2009-03-10 08:21:48 51°14.424 2°54.985 -999 0.063201 0.3498 -1.244337
2009-03-10 08:21:52 51°14.431 2°54.971 -999 0.063201 0.349775 -1.244337
2009-03-10 08:21:59 51°14.445 2°54.945 -999 0.063201 0.349737 -1.244337
2009-03-10 08:22:04 51°14.455 2°54.926 -999 0.063201 0.349699 -1.244337
2009-03-10 08:22:08 51°14.463 2°54.911 -999 0.063201 0.349699 -1.244337
2009-03-10 08:22:12 51°14.471 2°54.896 -999 0.063201 0.349668 -1.244337
2009-03-10 08:22:19 51°14.486 2°54.869 -999 0.063201 0.349649 -1.244337
2009-03-10 08:22:24 51°14.498 2°54.851 -999 0.063201 0.349636 -1.244337
2009-03-10 08:22:28 51°14.507 2°54.837 -999 0.063201 0.349643 -1.244337
2009-03-10 08:22:32 51°14.517 2°54.824 -999 0.063201 0.349649 -1.244337
2009-03-10 08:22:39 51°14.535 2°54.801 -999 0.063201 0.349649 -1.244337
2009-03-10 08:22:44 51°14.549 2°54.787 -999 0.063201 0.349662 -1.244337
2009-03-10 08:22:48 51°14.56 2°54.777 -999 0.063201 0.34968 -1.244337
2009-03-10 08:22:53 51°14.574 2°54.765 -999 0.063201 0.349706 -1.244337
2009-03-10 08:22:58 51°14.589 2°54.753 -999 0.063201 0.349731 -1.244337
2009-03-10 08:23:04 51°14.605 2°54.738 -999 0.063201 0.349737 -1.244337
2009-03-10 08:23:08 51°14.618 2°54.731 -999 0.063201 0.349737 -1.244337
2009-03-10 08:23:13 51°14.633 2°54.722 -999 0.063201 0.349737 -1.244337
2009-03-10 08:23:19 51°14.651 2°54.717 -999 0.063201 0.34975 -1.244337
2009-03-10 08:23:24 51°14.667 2°54.713 -999 0.063201 0.349743 -1.244337
2009-03-10 08:23:28 51°14.679 2°54.713 -999 0.063201 0.349762 -1.244337
2009-03-10 08:23:33 51°14.695 2°54.711 -999 0.063201 0.34975 -1.244337
2009-03-10 08:23:39 51°14.713 2°54.712 -999 0.063201 0.34975 -1.244337
2009-03-10 08:23:44 51°14.729 2°54.713 -999 0.063201 0.349756 -1.209513
2009-03-10 08:23:48 51°14.741 2°54.714 -999 0.063201 0.34975 -1.244337
2009-03-10 08:23:53 51°14.756 2°54.718 -999 0.063201 0.34975 -1.244337
2009-03-10 08:23:59 51°14.775 2°54.723 -999 0.063201 0.349756 -1.244337
2009-03-10 08:24:04 51°14.79 2°54.727 -999 0.063201 0.34975 -1.244337
2009-03-10 08:24:08 51°14.802 2°54.732 -999 0.063201 0.34975 -1.244337
2009-03-10 08:24:13 51°14.817 2°54.739 -999 0.063201 0.349762 -1.244337
2009-03-10 08:24:19 51°14.835 2°54.747 -999 0.063201 0.349768 -1.244337
2009-03-10 08:24:24 51°14.85 2°54.755 -999 0.063201 0.349775 -1.244337
2009-03-10 08:24:28 51°14.861 2°54.761 -999 0.063201 0.349775 -1.209513
2009-03-10 08:24:33 51°14.875 2°54.774 -999 0.063201 0.349787 -1.244337
2009-03-10 08:24:39 51°14.891 2°54.787 -999 0.063201 0.349787 -1.244337
2009-03-10 08:24:44 51°14.905 2°54.8 -999 0.063201 0.3498 -1.209513
2009-03-10 08:24:48 51°14.915 2°54.81 -999 0.063201 0.349806 -1.209513
2009-03-10 08:24:53 51°14.928 2°54.824 -999 0.063201 0.349819 -1.209513
2009-03-10 08:24:58 51°14.941 2°54.837 -999 0.063201 0.349825 -1.209513
2009-03-10 08:25:04 51°14.955 2°54.855 -999 0.063201 0.349838 -1.209513
2009-03-10 08:25:08 51°14.967 2°54.865 -999 0.063201 0.349838 -1.209513
2009-03-10 08:25:13 51°14.978 2°54.882 -999 0.063201 0.349831 -1.209513
2009-03-10 08:25:18 51°14.991 2°54.896 -999 0.063201 0.349838 -1.209513
2009-03-10 08:25:24 51°15.006 2°54.913 -999 0.063201 0.349838 -1.209513
2009-03-10 08:25:28 51°15.015 2°54.926 -999 0.063201 0.34985 -1.209513
2009-03-10 08:25:33 51°15.029 2°54.94 -999 0.063201 0.349838 -1.209513
2009-03-10 08:25:39 51°15.043 2°54.959 -999 0.063201 0.349838 -1.209513
2009-03-10 08:25:44 51°15.055 2°54.974 -999 0.063201 0.34985 -1.209513
2009-03-10 08:25:48 51°15.065 2°54.985 -999 0.063201 0.349844 -1.209513
2009-03-10 08:25:53 51°15.077 2°55.001 -999 0.063201 0.349863 -1.209513
2009-03-10 08:25:59 51°15.092 2°55.018 -999 0.063201 0.349856 -1.209513
2009-03-10 08:26:04 51°15.104 2°55.034 -999 0.063098 0.349282 -1.209513
2009-03-10 08:26:08 51°15.114 2°55.046 -999 0.063098 0.349282 -1.209513
2009-03-10 08:26:13 51°15.126 2°55.061 -999 0.063201 0.349875 -1.209513
2009-03-10 08:26:19 51°15.14 2°55.079 -999 0.063201 0.349875 -1.209513
2009-03-10 08:26:24 51°15.153 2°55.094 -999 0.063098 0.349294 -1.209513
2009-03-10 08:26:28 51°15.162 2°55.107 -999 0.063098 0.349307 -1.209513
2009-03-10 08:26:33 51°15.174 2°55.121 -999 0.063201 0.349888 -1.209513
2009-03-10 08:26:39 51°15.188 2°55.141 -999 0.063201 0.349888 -1.209513
2009-03-10 08:26:44 51°15.201 2°55.155 -999 0.063098 0.349313 -1.209513
2009-03-10 08:26:48 51°15.209 2°55.169 -999 0.063098 0.349319 -1.209513
2009-03-10 08:26:53 51°15.222 2°55.183 -999 0.063098 0.349319 -1.209513
2009-03-10 08:26:59 51°15.235 2°55.203 -999 0.063098 0.349338 -1.209513
2009-03-10 08:27:04 51°15.248 2°55.216 -999 0.063098 0.349326 -1.209513
2009-03-10 08:27:08 51°15.257 2°55.23 -999 0.063098 0.349326 -1.209513
2009-03-10 08:27:13 51°15.269 2°55.245 -999 0.063098 0.349357 -1.209513
2009-03-10 08:27:18 51°15.281 2°55.26 -999 0.063098 0.349344 -1.209513
2009-03-10 08:27:24 51°15.295 2°55.279 -999 0.063098 0.349357 -1.209513
2009-03-10 08:27:28 51°15.304 2°55.291 -999 0.063098 0.349363 -1.209513
2009-03-10 08:27:33 51°15.317 2°55.306 -999 0.063098 0.349357 -1.209513
2009-03-10 08:27:39 51°15.33 2°55.326 -999 0.063098 0.349357 -1.209513
2009-03-10 08:27:44 51°15.343 2°55.339 -999 0.063098 0.34937 -1.209513
2009-03-10 08:27:48 51°15.352 2°55.353 -999 0.063098 0.34937 -1.209513
2009-03-10 08:27:52 51°15.362 2°55.364 -999 0.063098 0.34937 -1.209513
2009-03-10 08:27:59 51°15.379 2°55.385 -999 0.063098 0.34937 -1.209513
2009-03-10 08:28:04 51°15.39 2°55.401 -999 0.063098 0.349376 -1.209513
2009-03-10 08:28:08 51°15.4 2°55.413 -999 0.063098 0.349376 -1.209513
2009-03-10 08:28:14 51°15.414 2°55.43 -999 0.063098 0.34937 -1.209513
2009-03-10 08:28:18 51°15.424 2°55.443 -999 0.063098 0.349388 -1.209513
2009-03-10 08:28:24 51°15.438 2°55.461 -999 0.063098 0.349376 -1.209513
2009-03-10 08:28:28 51°15.447 2°55.475 -999 0.063098 0.349395 -1.209513
2009-03-10 08:28:34 51°15.463 2°55.491 -999 0.063098 0.349388 -1.209513
2009-03-10 08:28:39 51°15.474 2°55.508 -999 0.063098 0.349388 -1.209513
2009-03-10 08:28:44 51°15.486 2°55.522 -999 0.063098 0.349395 -1.209513
2009-03-10 08:28:48 51°15.496 2°55.536 -999 0.063098 0.349401 -1.209513
2009-03-10 08:28:52 51°15.506 2°55.547 -999 0.063098 0.349395 -1.209513
2009-03-10 08:28:59 51°15.522 2°55.569 -999 0.063098 0.349407 -1.209513
2009-03-10 08:29:04 51°15.534 2°55.584 -999 0.063098 0.349401 -1.209513
2009-03-10 08:29:08 51°15.544 2°55.597 -999 0.063098 0.349401 -1.209513
2009-03-10 08:29:13 51°15.556 2°55.612 -999 0.063098 0.349407 -1.209513
2009-03-10 08:29:19 51°15.57 2°55.632 -999 0.063098 0.349407 -1.209513
2009-03-10 08:29:24 51°15.581 2°55.648 -999 0.063098 0.349414 -1.209513
2009-03-10 08:29:28 51°15.59 2°55.662 -999 0.063098 0.349414 -1.209513
2009-03-10 08:29:33 51°15.601 2°55.679 -999 0.063098 0.34942 -1.209513
2009-03-10 08:29:38 51°15.613 2°55.695 -999 0.063098 0.34942 -1.209513
2009-03-10 08:29:44 51°15.626 2°55.716 -999 0.063098 0.349414 -1.209513
2009-03-10 08:29:48 51°15.635 2°55.729 -999 0.063098 0.349414 -1.209513
2009-03-10 08:29:53 51°15.646 2°55.746 -999 0.063098 0.34942 -1.209513
2009-03-10 08:29:59 51°15.66 2°55.766 -999 0.063098 0.34942 -1.209513
2009-03-10 08:30:04 51°15.67 2°55.785 -999 0.063098 0.349433 -1.209513
2009-03-10 08:30:08 51°15.679 2°55.798 -999 0.063098 0.349433 -1.209513
2009-03-10 08:30:13 51°15.689 2°55.817 -999 0.063098 0.349433 -1.209513
2009-03-10 08:30:19 51°15.702 2°55.838 -999 0.063098 0.349439 -1.209513
2009-03-10 08:30:24 51°15.712 2°55.857 -999 0.063098 0.349439 -1.209513
2009-03-10 08:30:28 51°15.72 2°55.872 -999 0.063098 0.349451 -1.209513
2009-03-10 08:30:33 51°15.731 2°55.889 -999 0.063098 0.349439 -1.209513
2009-03-10 08:30:39 51°15.742 2°55.912 -999 0.063098 0.349439 -1.209513
2009-03-10 08:30:44 51°15.753 2°55.93 -999 0.063098 0.349458 -1.209513
2009-03-10 08:30:48 51°15.761 2°55.944 -999 0.063098 0.349451 -1.209513
2009-03-10 08:30:53 51°15.771 2°55.964 -999 0.063098 0.349458 -1.209513
2009-03-10 08:30:59 51°15.783 2°55.986 -999 0.063098 0.349458 -1.209513
2009-03-10 08:31:04 51°15.792 2°56.005 -999 0.063098 0.349458 -1.209513
2009-03-10 08:31:08 51°15.801 2°56.019 -999 0.063098 0.349458 -1.209513
2009-03-10 08:31:13 51°15.81 2°56.039 -999 0.063098 0.349464 -1.209513
2009-03-10 08:31:19 51°15.822 2°56.061 -999 0.063098 0.349464 -1.209513
2009-03-10 08:31:24 51°15.832 2°56.081 -999 0.063098 0.349464 -1.209513
2009-03-10 08:31:28 51°15.839 2°56.097 -999 0.063098 0.34947 -1.209513
2009-03-10 08:31:32 51°15.845 2°56.114 -999 0.063098 0.34947 -1.209513
2009-03-10 08:31:38 51°15.857 2°56.137 -999 0.063098 0.34947 -1.209513
2009-03-10 08:31:44 51°15.866 2°56.163 -999 0.063098 0.349477 -1.209513
2009-03-10 08:31:48 51°15.874 2°56.178 -999 0.063098 0.349477 -1.209513
2009-03-10 08:31:52 51°15.88 2°56.195 -999 0.063098 0.349489 -1.209513
2009-03-10 08:31:58 51°15.891 2°56.219 -999 0.063098 0.349489 -1.209513
2009-03-10 08:32:04 51°15.901 2°56.245 -999 0.063098 0.349495 -1.209513
2009-03-10 08:32:08 51°15.909 2°56.26 -999 0.063098 0.349495 -1.209513
2009-03-10 08:32:12 51°15.915 2°56.277 -999 0.063098 0.349489 -1.209513
2009-03-10 08:32:19 51°15.927 2°56.306 -999 0.063098 0.349502 -1.209513
2009-03-10 08:32:24 51°15.936 2°56.326 -999 0.063098 0.349495 -1.209513
2009-03-10 08:32:28 51°15.943 2°56.343 -999 0.063098 0.349502 -1.209513
2009-03-10 08:32:32 51°15.95 2°56.359 -999 0.063098 0.349508 -1.209513
2009-03-10 08:32:39 51°15.962 2°56.387 -999 0.063098 0.349508 -1.209513
2009-03-10 08:32:44 51°15.97 2°56.408 -999 0.063098 0.349502 -1.209513
2009-03-10 08:32:48 51°15.978 2°56.423 -999 0.063098 0.349502 -1.209513
2009-03-10 08:32:52 51°15.984 2°56.44 -999 0.063098 0.349514 -1.209513
2009-03-10 08:32:59 51°15.997 2°56.468 -999 0.063098 0.349508 -1.209513
2009-03-10 08:33:04 51°16.005 2°56.489 -999 0.063098 0.349533 -1.209513
2009-03-10 08:33:08 51°16.013 2°56.504 -999 0.063098 0.349533 -1.209513
2009-03-10 08:33:12 51°16.021 2°56.52 -999 0.063098 0.349521 -1.209513
2009-03-10 08:33:19 51°16.032 2°56.549 -999 0.063098 0.349539 -1.209513
2009-03-10 08:33:24 51°16.041 2°56.569 -999 0.063098 0.349533 -1.209513
2009-03-10 08:33:28 51°16.048 2°56.586 -999 0.063098 0.349533 -1.209513
2009-03-10 08:33:33 51°16.057 2°56.606 -999 0.063098 0.349546 -1.209513
2009-03-10 08:33:39 51°16.067 2°56.631 -999 0.063098 0.349546 -1.209513
2009-03-10 08:33:44 51°16.076 2°56.651 -999 0.063098 0.349539 -1.209513
2009-03-10 08:33:48 51°16.083 2°56.668 -999 0.063098 0.349539 -1.209513
2009-03-10 08:33:53 51°16.091 2°56.688 -999 0.063098 0.349546 -1.209513
2009-03-10 08:33:58 51°16.1 2°56.709 -999 0.063098 0.349546 -1.209513
2009-03-10 08:34:04 51°16.111 2°56.732 -999 0.063098 0.349546 -1.244337
2009-03-10 08:34:08 51°16.117 2°56.749 -999 0.063098 0.349546 -1.244337
2009-03-10 08:34:13 51°16.127 2°56.769 -999 0.063098 0.349552 -1.209513
2009-03-10 08:34:18 51°16.136 2°56.789 -999 0.063098 0.349546 -1.209513
2009-03-10 08:34:24 51°16.146 2°56.813 -999 0.063098 0.349552 -1.209513
2009-03-10 08:34:28 51°16.153 2°56.829 -999 0.063098 0.349552 -1.209513
2009-03-10 08:34:33 51°16.163 2°56.849 -999 0.063098 0.349565 -1.209513
2009-03-10 08:34:39 51°16.173 2°56.874 -999 0.063098 0.349565 -1.209513
2009-03-10 08:34:44 51°16.182 2°56.894 -999 0.063098 0.349565 -1.209513
2009-03-10 08:34:48 51°16.19 2°56.91 -999 0.063098 0.349565 -1.209513
2009-03-10 08:34:53 51°16.198 2°56.931 -999 0.063098 0.349577 -1.209513
2009-03-10 08:34:59 51°16.21 2°56.954 -999 0.063098 0.349577 -1.209513
2009-03-10 08:35:04 51°16.218 2°56.974 -999 0.063098 0.349577 -1.209513
2009-03-10 08:35:08 51°16.226 2°56.99 -999 0.063098 0.349577 -1.209513
2009-03-10 08:35:13 51°16.235 2°57.011 -999 0.063098 0.349577 -1.209513
2009-03-10 08:35:19 51°16.246 2°57.034 -999 0.063098 0.349571 -1.209513
2009-03-10 08:35:24 51°16.254 2°57.056 -999 0.063098 0.349584 -1.209513
2009-03-10 08:35:28 51°16.262 2°57.071 -999 0.063098 0.349584 -1.209513
2009-03-10 08:35:34 51°16.272 2°57.096 -999 0.063098 0.349577 -1.209513
2009-03-10 08:35:39 51°16.281 2°57.116 -999 0.063098 0.349577 -1.209513
2009-03-10 08:35:44 51°16.29 2°57.137 -999 0.063098 0.349584 -1.209513
2009-03-10 08:35:48 51°16.297 2°57.153 -999 0.063098 0.34959 -1.209513
2009-03-10 08:35:53 51°16.306 2°57.173 -999 0.063098 0.349584 -1.209513
2009-03-10 08:35:59 51°16.317 2°57.197 -999 0.063098 0.34959 -1.209513
2009-03-10 08:36:04 51°16.325 2°57.218 -999 0.063098 0.349596 -1.209513
2009-03-10 08:36:08 51°16.333 2°57.234 -999 0.063098 0.349596 -1.209513
2009-03-10 08:36:13 51°16.341 2°57.255 -999 0.063098 0.349596 -1.209513
2009-03-10 08:36:18 51°16.35 2°57.275 -999 0.063098 0.349609 -1.209513
2009-03-10 08:36:24 51°16.36 2°57.299 -999 0.063098 0.349609 -1.209513
2009-03-10 08:36:28 51°16.368 2°57.315 -999 0.063098 0.349609 -1.209513
2009-03-10 08:36:33 51°16.377 2°57.335 -999 0.063098 0.349621 -1.209513
2009-03-10 08:36:38 51°16.385 2°57.356 -999 0.063098 0.349621 -1.209513
2009-03-10 08:36:44 51°16.398 2°57.379 -999 0.063098 0.349609 -1.209513
2009-03-10 08:36:48 51°16.403 2°57.396 -999 0.063098 0.349621 -1.209513
2009-03-10 08:36:53 51°16.414 2°57.416 -999 0.063098 0.349621 -1.209513
2009-03-10 08:36:59 51°16.424 2°57.44 -999 0.063098 0.349621 -1.209513
2009-03-10 08:37:04 51°16.434 2°57.46 -999 0.063098 0.349634 -1.209513
2009-03-10 08:37:08 51°16.441 2°57.476 -999 0.063098 0.349634 -1.209513
2009-03-10 08:37:13 51°16.452 2°57.494 -999 0.063098 0.349621 -1.209513
2009-03-10 08:37:19 51°16.461 2°57.52 -999 0.063098 0.349634 -1.209513
2009-03-10 08:37:24 51°16.472 2°57.539 -999 0.063098 0.349628 -1.209513
2009-03-10 08:37:28 51°16.479 2°57.555 -999 0.063098 0.349628 -1.209513
2009-03-10 08:37:33 51°16.488 2°57.575 -999 0.063098 0.349634 -1.209513
2009-03-10 08:37:39 51°16.499 2°57.599 -999 0.063098 0.349634 -1.209513
2009-03-10 08:37:44 51°16.508 2°57.62 -999 0.063098 0.349634 -1.209513
2009-03-10 08:37:48 51°16.516 2°57.635 -999 0.063098 0.349646 -1.209513
2009-03-10 08:37:54 51°16.527 2°57.659 -999 0.063098 0.349634 -1.209513
2009-03-10 08:37:59 51°16.535 2°57.681 -999 0.063098 0.349646 -1.209513
2009-03-10 08:38:04 51°16.545 2°57.701 -999 0.063098 0.349646 -1.209513
2009-03-10 08:38:08 51°16.552 2°57.718 -999 0.063098 0.349646 -1.209513
2009-03-10 08:38:13 51°16.561 2°57.738 -999 0.063098 0.349646 -1.209513
2009-03-10 08:38:19 51°16.572 2°57.763 -999 0.063098 0.349646 -1.244337
2009-03-10 08:38:24 51°16.581 2°57.784 -999 0.063098 0.349646 -1.209513
2009-03-10 08:38:28 51°16.588 2°57.8 -999 0.063098 0.349646 -1.209513
2009-03-10 08:38:33 51°16.597 2°57.821 -999 0.063098 0.349646 -1.209513
2009-03-10 08:38:38 51°16.606 2°57.841 -999 0.063098 0.349646 -1.209513
2009-03-10 08:38:44 51°16.616 2°57.866 -999 0.063098 0.349659 -1.209513
2009-03-10 08:38:48 51°16.624 2°57.882 -999 0.063098 0.349659 -1.209513
2009-03-10 08:38:53 51°16.633 2°57.902 -999 0.063098 0.349653 -1.209513
2009-03-10 08:38:59 51°16.643 2°57.928 -999 0.063098 0.349672 -1.209513
2009-03-10 08:39:04 51°16.654 2°57.947 -999 0.063098 0.349659 -1.209513
2009-03-10 08:39:08 51°16.66 2°57.964 -999 0.063098 0.349659 -1.209513
2009-03-10 08:39:13 51°16.67 2°57.984 -999 0.063098 0.349672 -1.209513
2009-03-10 08:39:19 51°16.68 2°58.009 -999 0.063098 0.349672 -1.209513
2009-03-10 08:39:24 51°16.69 2°58.028 -999 0.063098 0.349678 -1.209513
2009-03-10 08:39:28 51°16.697 2°58.044 -999 0.063098 0.349684 -1.209513
2009-03-10 08:39:33 51°16.707 2°58.063 -999 0.063098 0.349678 -1.209513
2009-03-10 08:39:39 51°16.718 2°58.087 -999 0.063098 0.349678 -1.209513
2009-03-10 08:39:44 51°16.728 2°58.106 -999 0.063098 0.349678 -1.209513
2009-03-10 08:39:48 51°16.735 2°58.122 -999 0.063098 0.349678 -1.209513
2009-03-10 08:39:54 51°16.747 2°58.146 -999 0.063098 0.349678 -1.209513
2009-03-10 08:39:59 51°16.756 2°58.167 -999 0.063098 0.349691 -1.209513
2009-03-10 08:40:04 51°16.765 2°58.187 -999 0.063098 0.349684 -1.209513
2009-03-10 08:40:08 51°16.773 2°58.203 -999 0.063098 0.349684 -1.209513
2009-03-10 08:40:13 51°16.782 2°58.224 -999 0.063098 0.349697 -1.244337
2009-03-10 08:40:19 51°16.793 2°58.248 -999 0.063098 0.349691 -1.209513
2009-03-10 08:40:24 51°16.803 2°58.268 -999 0.063098 0.349697 -1.209513
2009-03-10 08:40:28 51°16.81 2°58.284 -999 0.063098 0.349703 -1.209513
2009-03-10 08:40:33 51°16.819 2°58.305 -999 0.063098 0.349703 -1.209513
2009-03-10 08:40:39 51°16.831 2°58.329 -999 0.063098 0.349703 -1.209513
2009-03-10 08:40:44 51°16.84 2°58.35 -999 0.063098 0.349709 -1.209513
2009-03-10 08:40:48 51°16.848 2°58.365 -999 0.063098 0.349709 -1.209513
2009-03-10 08:40:53 51°16.856 2°58.386 -999 0.063098 0.349709 -1.209513
2009-03-10 08:40:59 51°16.867 2°58.41 -999 0.063098 0.349722 -1.209513
2009-03-10 08:41:04 51°16.876 2°58.431 -999 0.063098 0.349716 -1.209513
2009-03-10 08:41:08 51°16.884 2°58.446 -999 0.063098 0.349716 -1.209513
2009-03-10 08:41:12 51°16.89 2°58.463 -999 0.063098 0.349728 -1.244337
2009-03-10 08:41:18 51°16.902 2°58.486 -999 0.063098 0.349728 -1.209513
2009-03-10 08:41:24 51°16.913 2°58.511 -999 0.063098 0.349728 -1.209513
2009-03-10 08:41:29 51°16.922 2°58.531 -999 0.062995 0.34914 -1.209513
2009-03-10 08:41:32 51°16.928 2°58.543 -999 0.063098 0.349728 -1.209513
2009-03-10 08:41:39 51°16.94 2°58.571 -999 0.063098 0.349728 -1.209513
2009-03-10 08:41:44 51°16.95 2°58.59 -999 0.063098 0.349728 -1.209513
2009-03-10 08:41:49 51°16.958 2°58.611 -999 0.063098 0.349728 -1.209513
2009-03-10 08:41:54 51°16.968 2°58.631 -999 0.063098 0.349728 -1.209513
2009-03-10 08:41:59 51°16.977 2°58.651 -999 0.062995 0.349134 -1.209513
2009-03-10 08:42:04 51°16.985 2°58.672 -999 0.063098 0.349741 -1.209513
2009-03-10 08:42:08 51°16.993 2°58.688 -999 0.063098 0.349741 -1.209513
2009-03-10 08:42:14 51°17.004 2°58.712 -999 0.063098 0.349722 -1.209513
2009-03-10 08:42:19 51°17.012 2°58.733 -999 0.062995 0.349159 -1.209513
2009-03-10 08:42:24 51°17.022 2°58.752 -999 0.063098 0.349735 -1.209513
2009-03-10 08:42:28 51°17.028 2°58.77 -999 0.062995 0.349159 -1.209513
2009-03-10 08:42:33 51°17.038 2°58.789 -999 0.062995 0.349153 -1.209513
2009-03-10 08:42:39 51°17.048 2°58.814 -999 0.062995 0.349153 -1.209513
2009-03-10 08:42:44 51°17.058 2°58.834 -999 0.062995 0.349159 -1.209513
2009-03-10 08:42:48 51°17.065 2°58.851 -999 0.063098 0.349754 -1.244337
2009-03-10 08:42:53 51°17.075 2°58.872 -999 0.062995 0.349153 -1.209513
2009-03-10 08:42:58 51°17.083 2°58.892 -999 0.063098 0.34976 -1.209513
2009-03-10 08:43:04 51°17.095 2°58.916 -999 0.062995 0.349153 -1.209513
2009-03-10 08:43:08 51°17.102 2°58.933 -999 0.062995 0.349153 -1.209513
2009-03-10 08:43:13 51°17.11 2°58.954 -999 0.062995 0.349172 -1.209513
2009-03-10 08:43:18 51°17.12 2°58.974 -999 0.063098 0.349754 -1.209513
2009-03-10 08:43:24 51°17.131 2°58.999 -999 0.063098 0.34976 -1.209513
2009-03-10 08:43:28 51°17.138 2°59.016 -999 0.062995 0.349178 -1.209513
2009-03-10 08:43:33 51°17.148 2°59.035 -999 0.062995 0.349172 -1.209513
2009-03-10 08:43:39 51°17.158 2°59.06 -999 0.062995 0.349172 -1.209513
2009-03-10 08:43:44 51°17.168 2°59.08 -999 0.062995 0.349184 -1.209513
2009-03-10 08:43:48 51°17.176 2°59.096 -999 0.062995 0.349172 -1.209513
2009-03-10 08:43:53 51°17.185 2°59.117 -999 0.062995 0.349191 -1.209513
2009-03-10 08:43:59 51°17.197 2°59.14 -999 0.062995 0.349178 -1.209513
2009-03-10 08:44:04 51°17.206 2°59.16 -999 0.062995 0.349197 -1.209513
2009-03-10 08:44:09 51°17.216 2°59.18 -999 0.062995 0.349197 -1.209513
2009-03-10 08:44:13 51°17.223 2°59.196 -999 0.062995 0.349184 -1.209513
2009-03-10 08:44:19 51°17.234 2°59.221 -999 0.062995 0.349209 -1.209513
2009-03-10 08:44:24 51°17.244 2°59.24 -999 0.062995 0.349184 -1.209513
2009-03-10 08:44:28 51°17.251 2°59.257 -999 0.062995 0.349209 -1.209513
2009-03-10 08:44:34 51°17.262 2°59.281 -999 0.062995 0.349197 -1.209513
2009-03-10 08:44:39 51°17.272 2°59.301 -999 0.062995 0.349197 -1.209513
2009-03-10 08:44:44 51°17.28 2°59.322 -999 0.062995 0.349203 -1.209513
2009-03-10 08:44:48 51°17.288 2°59.337 -999 0.062995 0.349203 -1.244337
2009-03-10 08:44:53 51°17.298 2°59.358 -999 0.062995 0.349197 -1.209513
2009-03-10 08:44:59 51°17.308 2°59.382 -999 0.062995 0.349197 -1.209513
2009-03-10 08:45:04 51°17.318 2°59.403 -999 0.062995 0.349197 -1.209513
2009-03-10 08:45:08 51°17.325 2°59.419 -999 0.062995 0.349197 -1.209513
2009-03-10 08:45:13 51°17.334 2°59.44 -999 0.062995 0.349209 -1.209513
2009-03-10 08:45:18 51°17.344 2°59.46 -999 0.062995 0.349197 -1.209513
2009-03-10 08:45:24 51°17.354 2°59.486 -999 0.062995 0.349216 -1.209513
2009-03-10 08:45:28 51°17.361 2°59.502 -999 0.062995 0.349203 -1.209513
2009-03-10 08:45:33 51°17.371 2°59.522 -999 0.062995 0.349216 -1.209513
2009-03-10 08:45:39 51°17.381 2°59.548 -999 0.062995 0.349216 -1.209513
2009-03-10 08:45:44 51°17.391 2°59.568 -999 0.062995 0.349209 -1.209513
2009-03-10 08:45:48 51°17.397 2°59.586 -999 0.062995 0.349228 -1.209513
2009-03-10 08:45:53 51°17.408 2°59.605 -999 0.062995 0.349209 -1.209513
2009-03-10 08:45:59 51°17.417 2°59.631 -999 0.062995 0.349228 -1.209513
2009-03-10 08:46:04 51°17.427 2°59.651 -999 0.062995 0.349222 -1.209513
2009-03-10 08:46:08 51°17.434 2°59.668 -999 0.062995 0.349222 -1.209513
2009-03-10 08:46:13 51°17.443 2°59.69 -999 0.062995 0.349228 -1.209513
2009-03-10 08:46:19 51°17.455 2°59.714 -999 0.062995 0.349222 -1.209513
2009-03-10 08:46:24 51°17.463 2°59.735 -999 0.062995 0.349235 -1.209513
2009-03-10 08:46:28 51°17.472 2°59.75 -999 0.062995 0.349228 -1.244337
2009-03-10 08:46:34 51°17.483 2°59.775 -999 0.062995 0.349235 -1.209513
2009-03-10 08:46:39 51°17.493 2°59.795 -999 0.062995 0.349235 -1.209513
2009-03-10 08:46:44 51°17.502 2°59.816 -999 0.062995 0.349222 -1.209513
2009-03-10 08:46:48 51°17.509 2°59.832 -999 0.062995 0.349235 -1.209513
2009-03-10 08:46:54 51°17.521 2°59.856 -999 0.062995 0.349235 -1.244337
2009-03-10 08:46:59 51°17.531 2°59.876 -999 0.062995 0.349241 -1.209513
2009-03-10 08:47:04 51°17.541 2°59.896 -999 0.062995 0.349228 -1.209513
2009-03-10 08:47:08 51°17.548 2°59.913 -999 0.062995 0.349228 -1.209513
2009-03-10 08:47:13 51°17.556 2°59.934 -999 0.062995 0.349241 -1.209513
2009-03-10 08:47:19 51°17.568 2°59.957 -999 0.062995 0.349241 -1.209513
2009-03-10 08:47:24 51°17.577 2°59.977 -999 0.062995 0.349247 -1.209513
2009-03-10 08:47:28 51°17.585 2°59.993 -999 0.062995 0.349247 -1.209513
2009-03-10 08:47:33 51°17.594 3°0.014 -999 0.062995 0.349253 -1.209513
2009-03-10 08:47:38 51°17.604 3°0.034 -999 0.062995 0.349253 -1.209513
2009-03-10 08:47:44 51°17.615 3°0.059 -999 0.062995 0.349253 -1.209513
2009-03-10 08:47:48 51°17.622 3°0.076 -999 0.062995 0.349253 -1.209513
2009-03-10 08:47:53 51°17.632 3°0.096 -999 0.062995 0.349253 -1.209513
2009-03-10 08:47:59 51°17.642 3°0.122 -999 0.062995 0.349266 -1.209513
2009-03-10 08:48:04 51°17.653 3°0.141 -999 0.062995 0.349247 -1.209513
2009-03-10 08:48:08 51°17.66 3°0.158 -999 0.062995 0.349247 -1.209513
2009-03-10 08:48:13 51°17.669 3°0.179 -999 0.062995 0.349272 -1.209513
2009-03-10 08:48:19 51°17.68 3°0.203 -999 0.062995 0.34926 -1.209513
2009-03-10 08:48:24 51°17.689 3°0.224 -999 0.062995 0.349266 -1.244337
2009-03-10 08:48:28 51°17.696 3°0.24 -999 0.062995 0.34926 -1.209513
2009-03-10 08:48:33 51°17.704 3°0.261 -999 0.062995 0.349266 -1.209513
2009-03-10 08:48:39 51°17.716 3°0.285 -999 0.062995 0.349266 -1.209513
2009-03-10 08:48:44 51°17.725 3°0.306 -999 0.062995 0.349266 -1.209513
2009-03-10 08:48:49 51°17.733 3°0.327 -999 0.062995 0.349266 -1.209513
2009-03-10 08:48:54 51°17.742 3°0.348 -999 0.062995 0.349272 -1.209513
2009-03-10 08:48:59 51°17.751 3°0.369 -999 0.062995 0.349279 -1.209513
2009-03-10 08:49:04 51°17.761 3°0.389 -999 0.062995 0.349266 -1.209513
2009-03-10 08:49:08 51°17.768 3°0.405 -999 0.062995 0.349266 -1.209513
2009-03-10 08:49:14 51°17.779 3°0.429 -999 0.062995 0.349291 -1.209513
2009-03-10 08:49:19 51°17.789 3°0.45 -999 0.062995 0.349279 -1.209513
2009-03-10 08:49:24 51°17.797 3°0.47 -999 0.062995 0.349291 -1.209513
2009-03-10 08:49:28 51°17.805 3°0.486 -999 0.062995 0.349285 -1.244337
2009-03-10 08:49:33 51°17.815 3°0.506 -999 0.062995 0.349291 -1.209513
2009-03-10 08:49:39 51°17.826 3°0.531 -999 0.062995 0.349291 -1.209513
2009-03-10 08:49:44 51°17.836 3°0.55 -999 0.062995 0.349291 -1.209513
2009-03-10 08:49:48 51°17.843 3°0.567 -999 0.062995 0.349291 -1.209513
2009-03-10 08:49:53 51°17.853 3°0.586 -999 0.062995 0.349285 -1.209513
2009-03-10 08:49:58 51°17.862 3°0.607 -999 0.062995 0.349291 -1.209513
2009-03-10 08:50:04 51°17.874 3°0.63 -999 0.062995 0.349298 -1.209513
2009-03-10 08:50:08 51°17.882 3°0.647 -999 0.062995 0.349298 -1.209513
2009-03-10 08:50:13 51°17.892 3°0.665 -999 0.062995 0.349291 -1.209513
2009-03-10 08:50:19 51°17.904 3°0.689 -999 0.062995 0.34931 -1.209513
2009-03-10 08:50:24 51°17.914 3°0.708 -999 0.062995 0.349298 -1.209513
2009-03-10 08:50:28 51°17.921 3°0.725 -999 0.062995 0.34931 -1.209513
2009-03-10 08:50:33 51°17.932 3°0.744 -999 0.062995 0.349304 -1.209513
2009-03-10 08:50:39 51°17.943 3°0.767 -999 0.062995 0.349304 -1.209513
2009-03-10 08:50:44 51°17.954 3°0.786 -999 0.062995 0.349316 -1.209513
2009-03-10 08:50:48 51°17.962 3°0.8 -999 0.062995 0.349304 -1.244337
2009-03-10 08:50:53 51°17.972 3°0.821 -999 0.062995 0.349316 -1.209513
2009-03-10 08:50:59 51°17.986 3°0.842 -999 0.062995 0.349304 -1.209513
2009-03-10 08:51:04 51°17.995 3°0.862 -999 0.062995 0.349323 -1.209513
2009-03-10 08:51:08 51°18.004 3°0.876 -999 0.062995 0.349323 -1.209513
2009-03-10 08:51:14 51°18.017 3°0.899 -999 0.062995 0.349304 -1.244337
2009-03-10 08:51:19 51°18.028 3°0.917 -999 0.062995 0.349316 -1.244337
2009-03-10 08:51:24 51°18.038 3°0.936 -999 0.062995 0.349323 -1.209513
2009-03-10 08:51:28 51°18.047 3°0.951 -999 0.062995 0.349316 -1.209513
2009-03-10 08:51:33 51°18.058 3°0.969 -999 0.062995 0.34931 -1.209513
2009-03-10 08:51:39 51°18.07 3°0.992 -999 0.062995 0.34931 -1.209513
2009-03-10 08:51:44 51°18.08 3°1.011 -999 0.062995 0.349316 -1.209513
2009-03-10 08:51:48 51°18.089 3°1.026 -999 0.062995 0.349316 -1.209513
2009-03-10 08:51:53 51°18.099 3°1.045 -999 0.062995 0.34931 -1.209513
2009-03-10 08:51:59 51°18.111 3°1.068 -999 0.062995 0.349329 -1.209513
2009-03-10 08:52:04 51°18.123 3°1.086 -999 0.062995 0.34931 -1.209513
2009-03-10 08:52:08 51°18.13 3°1.101 -999 0.062995 0.34931 -1.209513
2009-03-10 08:52:13 51°18.14 3°1.121 -999 0.062995 0.349335 -1.209513
2009-03-10 08:52:19 51°18.154 3°1.142 -999 0.062995 0.349316 -1.244337
2009-03-10 08:52:24 51°18.163 3°1.162 -999 0.062995 0.349335 -1.209513
2009-03-10 08:52:28 51°18.172 3°1.176 -999 0.062995 0.349329 -1.209513
2009-03-10 08:52:32 51°18.181 3°1.19 -999 0.062995 0.349335 -1.209513
2009-03-10 08:52:39 51°18.195 3°1.216 -999 0.062995 0.349335 -1.209513
2009-03-10 08:52:44 51°18.206 3°1.234 -999 0.062995 0.349323 -1.209513
2009-03-10 08:52:48 51°18.214 3°1.25 -999 0.062995 0.349348 -1.209513
2009-03-10 08:52:52 51°18.224 3°1.263 -999 0.062995 0.349329 -1.209513
2009-03-10 08:52:59 51°18.237 3°1.291 -999 0.062995 0.349354 -1.209513
2009-03-10 08:53:04 51°18.249 3°1.307 -999 0.062995 0.349335 -1.209513
2009-03-10 08:53:09 51°18.258 3°1.327 -999 0.062995 0.349335 -1.209513
2009-03-10 08:53:14 51°18.268 3°1.345 -999 0.062995 0.349342 -1.209513
2009-03-10 08:53:18 51°18.276 3°1.361 -999 0.062995 0.349348 -1.209513
2009-03-10 08:53:24 51°18.289 3°1.383 -999 0.062995 0.349335 -1.244337
2009-03-10 08:53:28 51°18.296 3°1.4 -999 0.062995 0.349348 -1.209513
2009-03-10 08:53:34 51°18.309 3°1.42 -999 0.062995 0.349342 -1.209513
2009-03-10 08:53:38 51°18.317 3°1.437 -999 0.062995 0.349342 -1.209513
2009-03-10 08:53:44 51°18.33 3°1.458 -999 0.062995 0.349348 -1.244337
2009-03-10 08:53:48 51°18.338 3°1.474 -999 0.062995 0.349348 -1.209513
2009-03-10 08:53:54 51°18.35 3°1.496 -999 0.062995 0.349354 -1.209513
2009-03-10 08:53:59 51°18.361 3°1.515 -999 0.062995 0.349342 -1.209513
2009-03-10 08:54:04 51°18.37 3°1.534 -999 0.062995 0.349367 -1.209513
2009-03-10 08:54:08 51°18.378 3°1.55 -999 0.062995 0.349367 -1.209513
2009-03-10 08:54:12 51°18.388 3°1.564 -999 0.062995 0.349361 -1.209513
2009-03-10 08:54:18 51°18.399 3°1.586 -999 0.062995 0.349354 -1.209513
2009-03-10 08:54:24 51°18.412 3°1.609 -999 0.062995 0.349367 -1.209513
2009-03-10 08:54:28 51°18.42 3°1.623 -999 0.062995 0.349348 -1.209513
2009-03-10 08:54:32 51°18.428 3°1.639 -999 0.062995 0.349367 -1.209513
2009-03-10 08:54:38 51°18.44 3°1.661 -999 0.062995 0.349367 -1.209513
2009-03-10 08:54:44 51°18.453 3°1.684 -999 0.062995 0.349348 -1.244337
2009-03-10 08:54:49 51°18.463 3°1.703 -999 0.062995 0.349367 -1.174688
2009-03-10 08:54:53 51°18.472 3°1.716 -999 0.062995 0.349348 -1.209513
2009-03-10 08:54:59 51°18.483 3°1.74 -999 0.062995 0.349361 -1.209513
2009-03-10 08:55:04 51°18.494 3°1.757 -999 0.062995 0.349354 -1.209513
2009-03-10 08:55:09 51°18.504 3°1.776 -999 0.062995 0.349354 -1.209513
2009-03-10 08:55:14 51°18.515 3°1.794 -999 0.062995 0.349354 -1.209513
2009-03-10 08:55:19 51°18.525 3°1.813 -999 0.062995 0.349361 -1.209513
2009-03-10 08:55:24 51°18.536 3°1.832 -999 0.062995 0.349361 -1.209513
2009-03-10 08:55:28 51°18.543 3°1.847 -999 0.062995 0.349361 -1.209513
2009-03-10 08:55:34 51°18.556 3°1.869 -999 0.062995 0.349361 -1.209513
2009-03-10 08:55:39 51°18.565 3°1.89 -999 0.062995 0.349361 -1.209513
2009-03-10 08:55:44 51°18.576 3°1.907 -999 0.062995 0.349354 -1.209513
2009-03-10 08:55:48 51°18.583 3°1.924 -999 0.062995 0.349367 -1.209513
2009-03-10 08:55:53 51°18.594 3°1.942 -999 0.062995 0.349361 -1.209513
2009-03-10 08:55:59 51°18.606 3°1.965 -999 0.062995 0.349373 -1.174688
2009-03-10 08:56:04 51°18.616 3°1.984 -999 0.062995 0.349367 -1.209513
2009-03-10 08:56:08 51°18.624 3°1.999 -999 0.062995 0.349367 -1.209513
2009-03-10 08:56:13 51°18.634 3°2.018 -999 0.062995 0.349379 -1.209513
2009-03-10 08:56:19 51°18.647 3°2.041 -999 0.062995 0.349367 -1.209513
2009-03-10 08:56:24 51°18.657 3°2.06 -999 0.062995 0.349379 -1.209513
2009-03-10 08:56:28 51°18.665 3°2.075 -999 0.062995 0.349367 -1.209513
2009-03-10 08:56:33 51°18.674 3°2.095 -999 0.062995 0.349379 -1.209513
2009-03-10 08:56:39 51°18.687 3°2.117 -999 0.062995 0.349379 -1.209513
2009-03-10 08:56:44 51°18.696 3°2.137 -999 0.062995 0.349373 -1.209513
2009-03-10 08:56:49 51°18.707 3°2.155 -999 0.062995 0.349379 -1.209513
2009-03-10 08:56:53 51°18.715 3°2.17 -999 0.062995 0.349373 -1.244337
2009-03-10 08:56:59 51°18.727 3°2.193 -999 0.062995 0.349386 -1.244337
2009-03-10 08:57:04 51°18.738 3°2.212 -999 0.062995 0.349373 -1.209513
2009-03-10 08:57:09 51°18.748 3°2.231 -999 0.062995 0.349373 -1.209513
2009-03-10 08:57:13 51°18.756 3°2.246 -999 0.062995 0.349392 -1.174688
2009-03-10 08:57:19 51°18.769 3°2.267 -999 0.062995 0.349386 -1.209513
2009-03-10 08:57:24 51°18.779 3°2.286 -999 0.062995 0.349386 -1.209513
2009-03-10 08:57:29 51°18.79 3°2.304 -999 0.062995 0.349398 -1.209513
2009-03-10 08:57:34 51°18.8 3°2.322 -999 0.062995 0.349386 -1.209513
2009-03-10 08:57:39 51°18.811 3°2.341 -999 0.062995 0.349386 -1.209513
2009-03-10 08:57:44 51°18.821 3°2.36 -999 0.062995 0.349411 -1.209513
2009-03-10 08:57:48 51°18.83 3°2.373 -999 0.062995 0.349392 -1.209513
2009-03-10 08:57:53 51°18.839 3°2.393 -999 0.062995 0.349405 -1.209513
2009-03-10 08:57:59 51°18.852 3°2.415 -999 0.062995 0.349411 -1.209513
2009-03-10 08:58:04 51°18.863 3°2.433 -999 0.062995 0.349398 -1.244337
2009-03-10 08:58:08 51°18.871 3°2.448 -999 0.062995 0.349398 -1.244337
2009-03-10 08:58:13 51°18.881 3°2.468 -999 0.062995 0.349417 -1.174688
2009-03-10 08:58:19 51°18.894 3°2.489 -999 0.062995 0.349405 -1.244337
2009-03-10 08:58:24 51°18.904 3°2.509 -999 0.062995 0.349417 -1.209513
2009-03-10 08:58:28 51°18.913 3°2.523 -999 0.062995 0.349411 -1.209513
2009-03-10 08:58:33 51°18.923 3°2.543 -999 0.062995 0.349405 -1.244337
2009-03-10 08:58:39 51°18.936 3°2.565 -999 0.062995 0.349405 -1.244337
2009-03-10 08:58:44 51°18.946 3°2.585 -999 0.062995 0.349417 -1.174688
2009-03-10 08:58:49 51°18.957 3°2.603 -999 0.062995 0.349405 -1.209513
2009-03-10 08:58:53 51°18.965 3°2.619 -999 0.062995 0.349424 -1.209513
2009-03-10 08:58:59 51°18.979 3°2.639 -999 0.062995 0.349411 -1.209513
2009-03-10 08:59:04 51°18.987 3°2.659 -999 0.062995 0.349424 -1.209513
2009-03-10 08:59:09 51°18.999 3°2.677 -999 0.062995 0.349424 -1.209513
2009-03-10 08:59:13 51°19.006 3°2.694 -999 0.062995 0.34943 -1.209513
2009-03-10 08:59:19 51°19.02 3°2.713 -999 0.062995 0.349417 -1.209513
2009-03-10 08:59:24 51°19.028 3°2.735 -999 0.062995 0.34943 -1.174688
2009-03-10 08:59:29 51°19.04 3°2.751 -999 0.062995 0.349424 -1.244337
2009-03-10 08:59:34 51°19.05 3°2.771 -999 0.062995 0.349436 -1.209513
2009-03-10 08:59:39 51°19.061 3°2.789 -999 0.062995 0.349436 -1.209513
2009-03-10 08:59:44 51°19.071 3°2.808 -999 0.062995 0.349436 -1.209513
2009-03-10 08:59:48 51°19.079 3°2.823 -999 0.062995 0.34943 -1.209513
2009-03-10 08:59:53 51°19.089 3°2.843 -999 0.062995 0.349442 -1.174688
2009-03-10 08:59:58 51°19.1 3°2.861 -999 0.062995 0.349424 -1.209513
2009-03-10 09:00:04 51°19.113 3°2.883 -999 0.062995 0.349442 -1.209513
2009-03-10 09:00:08 51°19.121 3°2.899 -999 0.062995 0.349442 -1.209513
2009-03-10 09:00:14 51°19.134 3°2.921 -999 0.062995 0.349424 -1.209513
2009-03-10 09:00:19 51°19.143 3°2.941 -999 0.062995 0.349455 -1.174688
2009-03-10 09:00:24 51°19.155 3°2.957 -999 0.062995 0.349436 -1.209513
2009-03-10 09:00:28 51°19.162 3°2.974 -999 0.062995 0.349449 -1.209513
2009-03-10 09:00:33 51°19.174 3°2.991 -999 0.062995 0.349442 -1.209513
2009-03-10 09:00:39 51°19.185 3°3.016 -999 0.062995 0.349442 -1.209513
2009-03-10 09:00:44 51°19.197 3°3.032 -999 0.062995 0.349455 -1.209513
2009-03-10 09:00:48 51°19.205 3°3.046 -999 0.062995 0.349449 -1.209513
2009-03-10 09:00:53 51°19.216 3°3.066 -999 0.062995 0.349461 -1.209513
2009-03-10 09:00:58 51°19.227 3°3.083 -999 0.062995 0.349442 -1.209513
2009-03-10 09:01:04 51°19.239 3°3.106 -999 0.062995 0.349455 -1.209513
2009-03-10 09:01:08 51°19.248 3°3.12 -999 0.062995 0.349455 -1.209513
2009-03-10 09:01:12 51°19.257 3°3.134 -999 0.062995 0.349436 -1.244337
2009-03-10 09:01:19 51°19.271 3°3.161 -999 0.062995 0.349449 -1.209513
2009-03-10 09:01:24 51°19.282 3°3.178 -999 0.062995 0.349455 -1.209513
2009-03-10 09:01:29 51°19.293 3°3.195 -999 0.062995 0.349449 -1.209513
2009-03-10 09:01:33 51°19.301 3°3.212 -999 0.062995 0.349449 -1.209513
2009-03-10 09:01:39 51°19.316 3°3.231 -999 0.062995 0.349449 -1.209513
2009-03-10 09:01:44 51°19.326 3°3.25 -999 0.062995 0.349455 -1.209513
2009-03-10 09:01:49 51°19.338 3°3.266 -999 0.062995 0.349449 -1.244337
2009-03-10 09:01:54 51°19.348 3°3.285 -999 0.062995 0.349455 -1.209513
2009-03-10 09:01:59 51°19.36 3°3.301 -999 0.062995 0.349449 -1.209513
2009-03-10 09:02:04 51°19.371 3°3.321 -999 0.062995 0.349461 -1.209513
2009-03-10 09:02:08 51°19.382 3°3.332 -999 0.062995 0.349461 -1.209513
2009-03-10 09:02:14 51°19.394 3°3.355 -999 0.062995 0.349461 -1.209513
2009-03-10 09:02:19 51°19.406 3°3.371 -999 0.062995 0.349461 -1.244337
2009-03-10 09:02:24 51°19.417 3°3.39 -999 0.062893 0.348885 -1.209513
2009-03-10 09:02:28 51°19.428 3°3.401 -999 0.062995 0.349461 -1.209513
2009-03-10 09:02:33 51°19.437 3°3.422 -999 0.062995 0.349474 -1.209513
2009-03-10 09:02:39 51°19.452 3°3.44 -999 0.062995 0.349474 -1.209513
2009-03-10 09:02:44 51°19.463 3°3.458 -999 0.062995 0.349474 -1.209513
2009-03-10 09:02:48 51°19.472 3°3.473 -999 0.062995 0.34948 -1.209513
2009-03-10 09:02:53 51°19.484 3°3.49 -999 0.062995 0.349474 -1.209513
2009-03-10 09:02:59 51°19.496 3°3.513 -999 0.062995 0.34948 -1.244337
2009-03-10 09:03:04 51°19.509 3°3.528 -999 0.062995 0.34948 -1.244337
2009-03-10 09:03:08 51°19.517 3°3.544 -999 0.062995 0.34948 -1.244337
2009-03-10 09:03:13 51°19.529 3°3.561 -999 0.062995 0.349487 -1.209513
2009-03-10 09:03:19 51°19.542 3°3.583 -999 0.062995 0.349487 -1.244337
2009-03-10 09:03:24 51°19.554 3°3.6 -999 0.062995 0.349493 -1.244337
2009-03-10 09:03:29 51°19.565 3°3.618 -999 0.062995 0.349493 -1.244337
2009-03-10 09:03:33 51°19.575 3°3.632 -999 0.062995 0.349487 -1.244337
2009-03-10 09:03:39 51°19.588 3°3.653 -999 0.062995 0.349487 -1.244337
2009-03-10 09:03:44 51°19.598 3°3.673 -999 0.062995 0.349487 -1.244337
2009-03-10 09:03:49 51°19.611 3°3.688 -999 0.062995 0.349499 -1.209513
2009-03-10 09:03:53 51°19.62 3°3.701 -999 0.062995 0.349487 -1.209513
2009-03-10 09:03:59 51°19.633 3°3.724 -999 0.062995 0.349499 -1.174688
2009-03-10 09:04:04 51°19.646 3°3.741 -999 0.062995 0.34948 -1.209513
2009-03-10 09:04:09 51°19.657 3°3.758 -999 0.062995 0.34948 -1.209513
2009-03-10 09:04:14 51°19.668 3°3.776 -999 0.062995 0.349499 -1.209513
2009-03-10 09:04:19 51°19.68 3°3.792 -999 0.062995 0.34948 -1.209513
2009-03-10 09:04:24 51°19.691 3°3.81 -999 0.062995 0.349499 -1.209513
2009-03-10 09:04:28 51°19.701 3°3.824 -999 0.062995 0.349487 -1.209513
2009-03-10 09:04:34 51°19.715 3°3.842 -999 0.062995 0.349493 -1.209513
2009-03-10 09:04:39 51°19.726 3°3.859 -999 0.062995 0.349493 -1.209513
2009-03-10 09:04:44 51°19.739 3°3.873 -999 0.062995 0.349487 -1.244337
2009-03-10 09:04:48 51°19.749 3°3.885 -999 0.062995 0.349505 -1.209513
2009-03-10 09:04:53 51°19.764 3°3.895 -999 0.062995 0.349487 -1.209513
2009-03-10 09:04:59 51°19.779 3°3.911 -999 0.062995 0.349499 -1.209513
2009-03-10 09:05:04 51°19.793 3°3.923 -999 0.062995 0.349505 -1.209513
2009-03-10 09:05:08 51°19.805 3°3.93 -999 0.062995 0.349505 -1.209513
2009-03-10 09:05:13 51°19.818 3°3.941 -999 0.062995 0.349499 -1.209513
2009-03-10 09:05:19 51°19.836 3°3.952 -999 0.062995 0.349512 -1.209513
2009-03-10 09:05:24 51°19.85 3°3.961 -999 0.062995 0.349493 -1.244337
2009-03-10 09:05:29 51°19.864 3°3.971 -999 0.062995 0.349518 -1.209513
2009-03-10 09:05:33 51°19.876 3°3.977 -999 0.062995 0.349499 -1.244337
2009-03-10 09:05:39 51°19.893 3°3.988 -999 0.062995 0.349499 -1.244337
2009-03-10 09:05:44 51°19.907 3°3.998 -999 0.062995 0.349518 -1.209513
2009-03-10 09:05:49 51°19.923 3°4.004 -999 0.062995 0.349505 -1.209513
2009-03-10 09:05:53 51°19.933 3°4.013 -999 0.062995 0.349518 -1.209513
2009-03-10 09:05:59 51°19.951 3°4.022 -999 0.062995 0.349518 -1.209513
2009-03-10 09:06:04 51°19.966 3°4.031 -999 0.062995 0.349518 -1.209513
2009-03-10 09:06:08 51°19.977 3°4.038 -999 0.062995 0.349518 -1.209513
2009-03-10 09:06:13 51°19.992 3°4.045 -999 0.062995 0.349518 -1.209513
2009-03-10 09:06:18 51°20.007 3°4.056 -999 0.062995 0.349512 -1.244337
2009-03-10 09:06:24 51°20.025 3°4.065 -999 0.062995 0.349505 -1.209513
2009-03-10 09:06:28 51°20.036 3°4.073 -999 0.062995 0.349512 -1.209513
2009-03-10 09:06:33 51°20.05 3°4.082 -999 0.062995 0.349512 -1.244337
2009-03-10 09:06:39 51°20.068 3°4.093 -999 0.062995 0.349512 -1.244337
2009-03-10 09:06:44 51°20.082 3°4.103 -999 0.062995 0.349512 -1.244337
2009-03-10 09:06:48 51°20.094 3°4.11 -999 0.062995 0.349518 -1.209513
2009-03-10 09:06:53 51°20.109 3°4.119 -999 0.062995 0.349512 -1.244337
2009-03-10 09:06:59 51°20.126 3°4.131 -999 0.062995 0.349518 -1.244337
2009-03-10 09:07:04 51°20.141 3°4.14 -999 0.062995 0.349518 -1.244337
2009-03-10 09:07:08 51°20.152 3°4.149 -999 0.062995 0.349518 -1.244337
2009-03-10 09:07:13 51°20.167 3°4.156 -999 0.062995 0.349518 -1.244337
2009-03-10 09:07:19 51°20.184 3°4.169 -999 0.062995 0.349518 -1.209513
2009-03-10 09:07:24 51°20.2 3°4.176 -999 0.062995 0.349512 -1.244337
2009-03-10 09:07:28 51°20.211 3°4.186 -999 0.062995 0.349518 -1.209513
2009-03-10 09:07:33 51°20.226 3°4.191 -999 0.062995 0.349524 -1.209513
2009-03-10 09:07:39 51°20.243 3°4.204 -999 0.062995 0.349524 -1.209513
2009-03-10 09:07:44 51°20.258 3°4.212 -999 0.062995 0.349524 -1.244337
2009-03-10 09:07:49 51°20.273 3°4.222 -999 0.062995 0.349524 -1.244337
2009-03-10 09:07:53 51°20.284 3°4.229 -999 0.062995 0.349531 -1.244337
2009-03-10 09:07:58 51°20.299 3°4.239 -999 0.062995 0.349543 -1.209513
2009-03-10 09:08:04 51°20.317 3°4.249 -999 0.062995 0.349537 -1.244337
2009-03-10 09:08:08 51°20.328 3°4.257 -999 0.062995 0.349537 -1.244337
2009-03-10 09:08:13 51°20.343 3°4.266 -999 0.062995 0.349543 -1.244337
2009-03-10 09:08:18 51°20.358 3°4.275 -999 0.062995 0.349543 -1.244337
2009-03-10 09:08:24 51°20.375 3°4.287 -999 0.062995 0.349537 -1.244337
2009-03-10 09:08:28 51°20.387 3°4.293 -999 0.062995 0.349537 -1.244337
2009-03-10 09:08:33 51°20.401 3°4.303 -999 0.062995 0.349537 -1.244337
2009-03-10 09:08:39 51°20.419 3°4.313 -999 0.062995 0.349537 -1.244337
2009-03-10 09:08:44 51°20.434 3°4.324 -999 0.062995 0.349537 -1.209513
2009-03-10 09:08:48 51°20.446 3°4.33 -999 0.062995 0.349531 -1.209513
2009-03-10 09:08:54 51°20.462 3°4.345 -999 0.062995 0.349543 -1.244337
2009-03-10 09:08:59 51°20.476 3°4.356 -999 0.062995 0.349537 -1.244337
2009-03-10 09:09:04 51°20.489 3°4.37 -999 0.062995 0.349537 -1.244337
2009-03-10 09:09:08 51°20.5 3°4.38 -999 0.062995 0.349537 -1.244337
2009-03-10 09:09:14 51°20.515 3°4.398 -999 0.062995 0.349543 -1.244337
2009-03-10 09:09:18 51°20.525 3°4.411 -999 0.062995 0.349543 -1.244337
2009-03-10 09:09:24 51°20.539 3°4.429 -999 0.062995 0.34955 -1.244337
2009-03-10 09:09:28 51°20.548 3°4.443 -999 0.062995 0.34955 -1.244337
2009-03-10 09:09:32 51°20.557 3°4.457 -999 0.062995 0.34955 -1.244337
2009-03-10 09:09:39 51°20.572 3°4.482 -999 0.062995 0.34955 -1.244337
2009-03-10 09:09:44 51°20.583 3°4.5 -999 0.062995 0.34955 -1.244337
2009-03-10 09:09:48 51°20.59 3°4.517 -999 0.062995 0.349556 -1.209513
2009-03-10 09:09:52 51°20.599 3°4.53 -999 0.062995 0.349543 -1.209513
2009-03-10 09:09:59 51°20.612 3°4.558 -999 0.062995 0.349562 -1.209513
2009-03-10 09:10:04 51°20.623 3°4.576 -999 0.062995 0.349556 -1.244337
2009-03-10 09:10:08 51°20.629 3°4.594 -999 0.062995 0.349556 -1.244337
2009-03-10 09:10:12 51°20.637 3°4.61 -999 0.062995 0.349562 -1.244337
2009-03-10 09:10:18 51°20.646 3°4.635 -999 0.062995 0.349569 -1.244337
2009-03-10 09:10:24 51°20.656 3°4.661 -999 0.062995 0.349569 -1.244337
2009-03-10 09:10:29 51°20.663 3°4.684 -999 0.062995 0.349562 -1.244337
2009-03-10 09:10:34 51°20.67 3°4.706 -999 0.062995 0.349575 -1.244337
2009-03-10 09:10:38 51°20.675 3°4.724 -999 0.062995 0.349575 -1.244337
2009-03-10 09:10:44 51°20.683 3°4.752 -999 0.062995 0.349575 -1.244337
2009-03-10 09:10:49 51°20.687 3°4.775 -999 0.062995 0.349562 -1.244337
2009-03-10 09:10:54 51°20.693 3°4.799 -999 0.062995 0.349575 -1.244337
2009-03-10 09:10:58 51°20.698 3°4.817 -999 0.062995 0.349562 -1.244337
2009-03-10 09:11:04 51°20.704 3°4.846 -999 0.062995 0.349575 -1.244337
2009-03-10 09:11:09 51°20.71 3°4.869 -999 0.062995 0.349575 -1.244337
2009-03-10 09:11:14 51°20.715 3°4.892 -999 0.062995 0.349556 -1.244337
2009-03-10 09:11:18 51°20.719 3°4.912 -999 0.062995 0.349575 -1.244337
2009-03-10 09:11:24 51°20.727 3°4.939 -999 0.062995 0.349556 -1.244337
2009-03-10 09:11:28 51°20.73 3°4.959 -999 0.062995 0.349562 -1.244337
2009-03-10 09:11:34 51°20.737 3°4.986 -999 0.062995 0.349562 -1.244337
2009-03-10 09:11:39 51°20.741 3°5.011 -999 0.062995 0.349562 -1.244337
2009-03-10 09:11:44 51°20.747 3°5.034 -999 0.062995 0.349569 -1.244337
2009-03-10 09:11:48 51°20.75 3°5.053 -999 0.062995 0.349562 -1.244337
2009-03-10 09:11:53 51°20.755 3°5.077 -999 0.062995 0.349569 -1.244337
2009-03-10 09:11:59 51°20.762 3°5.106 -999 0.062995 0.349562 -1.244337
2009-03-10 09:12:04 51°20.767 3°5.13 -999 0.062995 0.349562 -1.244337
2009-03-10 09:12:08 51°20.771 3°5.149 -999 0.062995 0.349562 -1.244337
2009-03-10 09:12:13 51°20.777 3°5.173 -999 0.062995 0.349562 -1.244337
2009-03-10 09:12:19 51°20.784 3°5.202 -999 0.062995 0.349556 -1.244337
2009-03-10 09:12:24 51°20.789 3°5.226 -999 0.062995 0.349562 -1.244337
2009-03-10 09:12:29 51°20.795 3°5.25 -999 0.062995 0.349562 -1.244337
2009-03-10 09:12:33 51°20.799 3°5.269 -999 0.062995 0.349562 -1.244337
2009-03-10 09:12:39 51°20.808 3°5.298 -999 0.062995 0.349562 -1.244337
2009-03-10 09:12:44 51°20.812 3°5.322 -999 0.062995 0.349562 -1.244337
2009-03-10 09:12:49 51°20.818 3°5.345 -999 0.062995 0.349569 -1.244337
2009-03-10 09:12:53 51°20.823 3°5.364 -999 0.062995 0.349569 -1.244337
2009-03-10 09:12:59 51°20.83 3°5.393 -999 0.062995 0.349569 -1.244337
2009-03-10 09:13:04 51°20.835 3°5.417 -999 0.062995 0.349569 -1.244337
2009-03-10 09:13:09 51°20.841 3°5.441 -999 0.062995 0.349569 -1.244337
2009-03-10 09:13:14 51°20.848 3°5.464 -999 0.062995 0.349569 -1.244337
2009-03-10 09:13:19 51°20.854 3°5.488 -999 0.062995 0.349575 -1.244337
2009-03-10 09:13:24 51°20.861 3°5.51 -999 0.062995 0.349562 -1.244337
2009-03-10 09:13:28 51°20.865 3°5.529 -999 0.062995 0.349575 -1.244337
2009-03-10 09:13:34 51°20.874 3°5.557 -999 0.062995 0.349569 -1.244337
2009-03-10 09:13:39 51°20.879 3°5.581 -999 0.062995 0.349569 -1.244337
2009-03-10 09:13:44 51°20.887 3°5.603 -999 0.062995 0.349594 -1.209513
2009-03-10 09:13:48 51°20.892 3°5.621 -999 0.062995 0.349575 -1.244337
2009-03-10 09:13:54 51°20.899 3°5.649 -999 0.062995 0.349581 -1.244337
2009-03-10 09:13:59 51°20.906 3°5.672 -999 0.062995 0.349581 -1.244337
2009-03-10 09:14:04 51°20.912 3°5.694 -999 0.062995 0.349575 -1.244337
2009-03-10 09:14:08 51°20.917 3°5.713 -999 0.062995 0.349575 -1.244337
2009-03-10 09:14:13 51°20.924 3°5.736 -999 0.062995 0.349587 -1.244337
2009-03-10 09:14:19 51°20.931 3°5.764 -999 0.062995 0.349581 -1.244337
2009-03-10 09:14:24 51°20.938 3°5.786 -999 0.062995 0.349581 -1.244337
2009-03-10 09:14:28 51°20.943 3°5.805 -999 0.062995 0.349587 -1.244337
2009-03-10 09:14:33 51°20.949 3°5.829 -999 0.062995 0.349581 -1.244337
2009-03-10 09:14:39 51°20.957 3°5.856 -999 0.062995 0.349581 -1.244337
2009-03-10 09:14:44 51°20.963 3°5.88 -999 0.062995 0.349581 -1.244337
2009-03-10 09:14:49 51°20.969 3°5.903 -999 0.062995 0.349594 -1.244337
2009-03-10 09:14:53 51°20.975 3°5.922 -999 0.062995 0.349581 -1.244337
2009-03-10 09:14:59 51°20.982 3°5.95 -999 0.062995 0.349594 -1.209513
2009-03-10 09:15:04 51°20.988 3°5.973 -999 0.062995 0.3496 -1.244337
2009-03-10 09:15:09 51°20.996 3°5.996 -999 0.062995 0.3496 -1.244337
2009-03-10 09:15:13 51°21 3°6.014 -999 0.062995 0.349581 -1.244337
2009-03-10 09:15:19 51°21.007 3°6.042 -999 0.062995 0.349594 -1.244337
2009-03-10 09:15:24 51°21.014 3°6.065 -999 0.062995 0.3496 -1.244337
2009-03-10 09:15:29 51°21.021 3°6.088 -999 0.062995 0.349581 -1.244337
2009-03-10 09:15:34 51°21.026 3°6.112 -999 0.062995 0.3496 -1.244337
2009-03-10 09:15:39 51°21.034 3°6.134 -999 0.062995 0.3496 -1.244337
2009-03-10 09:15:44 51°21.04 3°6.158 -999 0.062995 0.349581 -1.244337
2009-03-10 09:15:48 51°21.046 3°6.176 -999 0.062995 0.3496 -1.244337
2009-03-10 09:15:54 51°21.055 3°6.204 -999 0.062995 0.349587 -1.244337
2009-03-10 09:15:59 51°21.06 3°6.227 -999 0.062995 0.349594 -1.244337
2009-03-10 09:16:04 51°21.067 3°6.25 -999 0.062995 0.349594 -1.244337
2009-03-10 09:16:08 51°21.073 3°6.268 -999 0.062995 0.349594 -1.244337
2009-03-10 09:16:14 51°21.081 3°6.296 -999 0.062995 0.349587 -1.244337
2009-03-10 09:16:19 51°21.087 3°6.32 -999 0.062995 0.349587 -1.244337
2009-03-10 09:16:24 51°21.093 3°6.344 -999 0.062995 0.349594 -1.244337
2009-03-10 09:16:28 51°21.098 3°6.363 -999 0.062995 0.349581 -1.244337
2009-03-10 09:16:33 51°21.105 3°6.386 -999 0.062995 0.349606 -1.244337
2009-03-10 09:16:39 51°21.111 3°6.415 -999 0.062995 0.349606 -1.244337
2009-03-10 09:16:44 51°21.12 3°6.437 -999 0.062995 0.3496 -1.244337
2009-03-10 09:16:48 51°21.123 3°6.457 -999 0.062995 0.3496 -1.209513
2009-03-10 09:16:53 51°21.13 3°6.48 -999 0.062995 0.3496 -1.244337
2009-03-10 09:16:59 51°21.137 3°6.508 -999 0.062995 0.349606 -1.244337
2009-03-10 09:17:04 51°21.144 3°6.531 -999 0.062995 0.349606 -1.244337
2009-03-10 09:17:09 51°21.15 3°6.554 -999 0.062995 0.349606 -1.244337
2009-03-10 09:17:13 51°21.155 3°6.573 -999 0.062995 0.349606 -1.244337
2009-03-10 09:17:19 51°21.163 3°6.601 -999 0.062995 0.3496 -1.244337
2009-03-10 09:17:24 51°21.169 3°6.624 -999 0.062995 0.349594 -1.244337
2009-03-10 09:17:29 51°21.174 3°6.648 -999 0.062995 0.349606 -1.244337
2009-03-10 09:17:33 51°21.18 3°6.667 -999 0.062995 0.349594 -1.244337
2009-03-10 09:17:39 51°21.186 3°6.696 -999 0.062995 0.349594 -1.244337
2009-03-10 09:17:44 51°21.191 3°6.721 -999 0.062995 0.3496 -1.244337
2009-03-10 09:17:49 51°21.197 3°6.745 -999 0.062995 0.349587 -1.244337
2009-03-10 09:17:54 51°21.202 3°6.77 -999 0.062995 0.349606 -1.244337
2009-03-10 09:17:59 51°21.207 3°6.795 -999 0.062995 0.3496 -1.244337
2009-03-10 09:18:04 51°21.212 3°6.819 -999 0.062995 0.3496 -1.244337
2009-03-10 09:18:08 51°21.216 3°6.84 -999 0.062995 0.3496 -1.244337
2009-03-10 09:18:14 51°21.222 3°6.869 -999 0.062995 0.349606 -1.244337
2009-03-10 09:18:19 51°21.227 3°6.894 -999 0.062995 0.349606 -1.244337
2009-03-10 09:18:24 51°21.231 3°6.919 -999 0.062995 0.349619 -1.244337
2009-03-10 09:18:28 51°21.237 3°6.938 -999 0.062995 0.349606 -1.279161
2009-03-10 09:18:34 51°21.242 3°6.968 -999 0.062995 0.349613 -1.244337
2009-03-10 09:18:39 51°21.248 3°6.992 -999 0.062995 0.349613 -1.244337
2009-03-10 09:18:44 51°21.253 3°7.017 -999 0.062995 0.349613 -1.244337
2009-03-10 09:18:48 51°21.258 3°7.036 -999 0.062995 0.349613 -1.244337
2009-03-10 09:18:53 51°21.264 3°7.061 -999 0.062995 0.349606 -1.244337
2009-03-10 09:18:59 51°21.27 3°7.091 -999 0.062995 0.349619 -1.244337
2009-03-10 09:19:04 51°21.276 3°7.115 -999 0.062995 0.349606 -1.244337
2009-03-10 09:19:09 51°21.282 3°7.14 -999 0.062995 0.349606 -1.244337
2009-03-10 09:19:13 51°21.286 3°7.159 -999 0.062995 0.349613 -1.244337
2009-03-10 09:19:19 51°21.293 3°7.188 -999 0.062995 0.349619 -1.244337
2009-03-10 09:19:24 51°21.299 3°7.212 -999 0.062995 0.349606 -1.244337
2009-03-10 09:19:29 51°21.304 3°7.237 -999 0.062995 0.349619 -1.244337
2009-03-10 09:19:33 51°21.309 3°7.256 -999 0.062995 0.349619 -1.244337
2009-03-10 09:19:39 51°21.315 3°7.286 -999 0.062995 0.349619 -1.244337
2009-03-10 09:19:44 51°21.322 3°7.309 -999 0.062995 0.349619 -1.244337
2009-03-10 09:19:49 51°21.326 3°7.335 -999 0.062995 0.349619 -1.244337
2009-03-10 09:19:54 51°21.333 3°7.359 -999 0.062995 0.349625 -1.244337
2009-03-10 09:19:59 51°21.338 3°7.384 -999 0.062995 0.349632 -1.244337
2009-03-10 09:20:04 51°21.342 3°7.409 -999 0.062995 0.349625 -1.244337
2009-03-10 09:20:09 51°21.349 3°7.433 -999 0.062995 0.349625 -1.244337
2009-03-10 09:20:14 51°21.353 3°7.458 -999 0.062995 0.349638 -1.244337
2009-03-10 09:20:19 51°21.36 3°7.482 -999 0.062995 0.349632 -1.244337
2009-03-10 09:20:24 51°21.364 3°7.508 -999 0.062995 0.349632 -1.244337
2009-03-10 09:20:29 51°21.37 3°7.532 -999 0.062995 0.349625 -1.244337
2009-03-10 09:20:34 51°21.373 3°7.558 -999 0.062995 0.349632 -1.244337
2009-03-10 09:20:39 51°21.38 3°7.581 -999 0.062995 0.349632 -1.244337
2009-03-10 09:20:44 51°21.383 3°7.606 -999 0.062995 0.349632 -1.244337
2009-03-10 09:20:48 51°21.388 3°7.625 -999 0.062995 0.349638 -1.244337
2009-03-10 09:20:53 51°21.393 3°7.65 -999 0.062995 0.349632 -1.244337
2009-03-10 09:20:59 51°21.399 3°7.679 -999 0.062995 0.349638 -1.244337
2009-03-10 09:21:04 51°21.404 3°7.704 -999 0.062995 0.349644 -1.244337
2009-03-10 09:21:08 51°21.408 3°7.724 -999 0.062995 0.349644 -1.244337
2009-03-10 09:21:13 51°21.413 3°7.748 -999 0.062995 0.349632 -1.244337
2009-03-10 09:21:19 51°21.419 3°7.778 -999 0.062995 0.349644 -1.279161
2009-03-10 09:21:24 51°21.425 3°7.803 -999 0.062995 0.349632 -1.244337
2009-03-10 09:21:29 51°21.43 3°7.828 -999 0.062995 0.349632 -1.244337
2009-03-10 09:21:33 51°21.435 3°7.847 -999 0.062995 0.349632 -1.244337
2009-03-10 09:21:39 51°21.441 3°7.877 -999 0.062995 0.349632 -1.244337
2009-03-10 09:21:44 51°21.447 3°7.901 -999 0.062995 0.349632 -1.244337
2009-03-10 09:21:49 51°21.452 3°7.927 -999 0.062995 0.349632 -1.244337
2009-03-10 09:21:53 51°21.456 3°7.947 -999 0.062995 0.349638 -1.244337
2009-03-10 09:21:59 51°21.463 3°7.977 -999 0.062995 0.349632 -1.279161
2009-03-10 09:22:04 51°21.467 3°8.002 -999 0.062995 0.349638 -1.244337
2009-03-10 09:22:09 51°21.474 3°8.026 -999 0.062995 0.349638 -1.244337
2009-03-10 09:22:14 51°21.479 3°8.052 -999 0.062995 0.349638 -1.244337
2009-03-10 09:22:19 51°21.486 3°8.076 -999 0.062995 0.349625 -1.244337
2009-03-10 09:22:24 51°21.489 3°8.103 -999 0.062995 0.349657 -1.209513
2009-03-10 09:22:29 51°21.498 3°8.126 -999 0.062995 0.349638 -1.244337
2009-03-10 09:22:34 51°21.501 3°8.152 -999 0.062995 0.349651 -1.279161
2009-03-10 09:22:39 51°21.508 3°8.175 -999 0.062995 0.349651 -1.279161
2009-03-10 09:22:44 51°21.513 3°8.201 -999 0.062995 0.349663 -1.244337
2009-03-10 09:22:48 51°21.519 3°8.22 -999 0.062995 0.349651 -1.244337
2009-03-10 09:22:54 51°21.524 3°8.251 -999 0.062995 0.349663 -1.244337
2009-03-10 09:22:59 51°21.531 3°8.275 -999 0.062995 0.349657 -1.244337
2009-03-10 09:23:04 51°21.536 3°8.301 -999 0.062995 0.349657 -1.244337
2009-03-10 09:23:08 51°21.541 3°8.32 -999 0.062995 0.349657 -1.244337
2009-03-10 09:23:14 51°21.547 3°8.351 -999 0.062995 0.349651 -1.244337
2009-03-10 09:23:19 51°21.553 3°8.375 -999 0.062995 0.349657 -1.244337
2009-03-10 09:23:24 51°21.558 3°8.4 -999 0.062995 0.349657 -1.244337
2009-03-10 09:23:28 51°21.562 3°8.42 -999 0.062995 0.349651 -1.244337
2009-03-10 09:23:33 51°21.569 3°8.444 -999 0.062995 0.349657 -1.209513
2009-03-10 09:23:39 51°21.575 3°8.474 -999 0.062995 0.349657 -1.209513
2009-03-10 09:23:44 51°21.581 3°8.498 -999 0.062995 0.349657 -1.244337
2009-03-10 09:23:49 51°21.587 3°8.523 -999 0.062995 0.349663 -1.244337
2009-03-10 09:23:53 51°21.593 3°8.542 -999 0.062995 0.349651 -1.244337
2009-03-10 09:23:59 51°21.599 3°8.572 -999 0.062995 0.349682 -1.209513
2009-03-10 09:24:04 51°21.607 3°8.595 -999 0.062995 0.349651 -1.244337
2009-03-10 09:24:09 51°21.613 3°8.62 -999 0.062995 0.349651 -1.244337
2009-03-10 09:24:13 51°21.618 3°8.639 -999 0.062995 0.349676 -1.209513
2009-03-10 09:24:19 51°21.627 3°8.667 -999 0.062995 0.349657 -1.244337
2009-03-10 09:24:24 51°21.633 3°8.691 -999 0.062995 0.349676 -1.209513
2009-03-10 09:24:29 51°21.642 3°8.714 -999 0.062995 0.349657 -1.244337
2009-03-10 09:24:34 51°21.648 3°8.738 -999 0.062995 0.34967 -1.244337
2009-03-10 09:24:39 51°21.656 3°8.761 -999 0.062995 0.34967 -1.244337
2009-03-10 09:24:44 51°21.663 3°8.784 -999 0.062995 0.349651 -1.244337
2009-03-10 09:24:49 51°21.67 3°8.809 -999 0.062995 0.34967 -1.244337
2009-03-10 09:24:54 51°21.678 3°8.832 -999 0.062995 0.349651 -1.279161
2009-03-10 09:24:59 51°21.684 3°8.857 -999 0.062995 0.34967 -1.209513
2009-03-10 09:25:04 51°21.693 3°8.88 -999 0.062995 0.349651 -1.244337
2009-03-10 09:25:08 51°21.699 3°8.899 -999 0.062995 0.349651 -1.244337
2009-03-10 09:25:14 51°21.707 3°8.928 -999 0.062995 0.34967 -1.244337
2009-03-10 09:25:19 51°21.715 3°8.952 -999 0.062995 0.349657 -1.279161
2009-03-10 09:25:24 51°21.722 3°8.976 -999 0.062995 0.349663 -1.244337
2009-03-10 09:25:28 51°21.728 3°8.995 -999 0.062995 0.349657 -1.244337
2009-03-10 09:25:34 51°21.737 3°9.023 -999 0.062995 0.34967 -1.279161
2009-03-10 09:25:39 51°21.744 3°9.048 -999 0.062995 0.34967 -1.279161
2009-03-10 09:25:44 51°21.753 3°9.069 -999 0.062995 0.349657 -1.244337
2009-03-10 09:25:49 51°21.758 3°9.095 -999 0.062995 0.349676 -1.244337
2009-03-10 09:25:53 51°21.766 3°9.113 -999 0.062995 0.349663 -1.244337
2009-03-10 09:25:59 51°21.774 3°9.142 -999 0.062995 0.349682 -1.244337
2009-03-10 09:26:04 51°21.782 3°9.165 -999 0.062995 0.349663 -1.244337
2009-03-10 09:26:08 51°21.789 3°9.184 -999 0.062995 0.349663 -1.244337
2009-03-10 09:26:13 51°21.796 3°9.209 -999 0.062995 0.34967 -1.279161
2009-03-10 09:26:19 51°21.805 3°9.238 -999 0.062995 0.34967 -1.279161
2009-03-10 09:26:24 51°21.814 3°9.261 -999 0.062995 0.349657 -1.279161
2009-03-10 09:26:29 51°21.82 3°9.286 -999 0.062995 0.349663 -1.244337
2009-03-10 09:26:34 51°21.829 3°9.309 -999 0.062995 0.349663 -1.244337
2009-03-10 09:26:39 51°21.836 3°9.334 -999 0.062995 0.349663 -1.244337
2009-03-10 09:26:44 51°21.844 3°9.357 -999 0.062995 0.349651 -1.244337
2009-03-10 09:26:49 51°21.851 3°9.382 -999 0.062995 0.34967 -1.244337
2009-03-10 09:26:54 51°21.859 3°9.405 -999 0.062995 0.349663 -1.244337
2009-03-10 09:26:58 51°21.864 3°9.426 -999 0.062995 0.349682 -1.244337
2009-03-10 09:27:04 51°21.875 3°9.453 -999 0.062995 0.349682 -1.244337
2009-03-10 09:27:09 51°21.88 3°9.479 -999 0.062995 0.349682 -1.244337
2009-03-10 09:27:14 51°21.89 3°9.502 -999 0.062995 0.349695 -1.244337
2009-03-10 09:27:19 51°21.896 3°9.527 -999 0.062995 0.349688 -1.244337
2009-03-10 09:27:24 51°21.904 3°9.551 -999 0.062995 0.349695 -1.244337
2009-03-10 09:27:28 51°21.909 3°9.571 -999 0.062995 0.349695 -1.244337
2009-03-10 09:27:33 51°21.919 3°9.594 -999 0.062995 0.349688 -1.244337
2009-03-10 09:27:39 51°21.926 3°9.625 -999 0.062995 0.349688 -1.244337
2009-03-10 09:27:44 51°21.936 3°9.646 -999 0.062995 0.349701 -1.244337
2009-03-10 09:27:48 51°21.942 3°9.666 -999 0.062995 0.349695 -1.244337
2009-03-10 09:27:53 51°21.951 3°9.689 -999 0.062995 0.349695 -1.244337
2009-03-10 09:27:59 51°21.961 3°9.716 -999 0.062995 0.349695 -1.244337
2009-03-10 09:28:04 51°21.97 3°9.74 -999 0.062995 0.349688 -1.279161